<?xml version="1.0" encoding="UTF-8" standalone="no" ?>
<gpx xmlns="http://www.topografix.com/GPX/1/1" xmlns:xsi="http://www.w3.org/2001/XMLSchema-instance" xsi:schemaLocation="http://www.topografix.com/GPX/1/1 http://www.topografix.com/GPX/1/1/gpx.xsd" version="1.1" creator="VisuGPX - https://www.visugpx.com">
  <metadata>
    <name>Uxelles</name>
    <desc><![CDATA[tour au départ de Charcier par Uxelles et Denedières]]></desc>
  </metadata>
  <trk>
    <name><![CDATA[01-AOU-13 11:32:54]]></name>
    <trkseg>
      <trkpt lat="46.62256" lon="5.74667">
        <ele>527.42</ele>
        <time>2013-08-01T07:12:21Z</time>
      </trkpt>
      <trkpt lat="46.62257" lon="5.74667">
        <ele>527.42</ele>
        <time>2013-08-01T07:12:22Z</time>
      </trkpt>
      <trkpt lat="46.62257" lon="5.74666">
        <ele>523.58</ele>
        <time>2013-08-01T07:12:31Z</time>
      </trkpt>
      <trkpt lat="46.62258" lon="5.74666">
        <ele>523.58</ele>
        <time>2013-08-01T07:12:32Z</time>
      </trkpt>
      <trkpt lat="46.62257" lon="5.74673">
        <ele>524.54</ele>
        <time>2013-08-01T07:12:47Z</time>
      </trkpt>
      <trkpt lat="46.62263" lon="5.74667">
        <ele>524.54</ele>
        <time>2013-08-01T07:13:14Z</time>
      </trkpt>
      <trkpt lat="46.62273" lon="5.7468">
        <ele>524.06</ele>
        <time>2013-08-01T07:13:24Z</time>
      </trkpt>
      <trkpt lat="46.62273" lon="5.74703">
        <ele>525.02</ele>
        <time>2013-08-01T07:13:35Z</time>
      </trkpt>
      <trkpt lat="46.62272" lon="5.7477">
        <ele>525.98</ele>
        <time>2013-08-01T07:13:50Z</time>
      </trkpt>
      <trkpt lat="46.6227" lon="5.74783">
        <ele>526.46</ele>
        <time>2013-08-01T07:13:53Z</time>
      </trkpt>
      <trkpt lat="46.62258" lon="5.74781">
        <ele>526.46</ele>
        <time>2013-08-01T07:13:58Z</time>
      </trkpt>
      <trkpt lat="46.62247" lon="5.74759">
        <ele>525.98</ele>
        <time>2013-08-01T07:14:08Z</time>
      </trkpt>
      <trkpt lat="46.62247" lon="5.74759">
        <ele>525.98</ele>
        <time>2013-08-01T07:14:09Z</time>
      </trkpt>
      <trkpt lat="46.62226" lon="5.74724">
        <ele>525.98</ele>
        <time>2013-08-01T07:14:20Z</time>
      </trkpt>
      <trkpt lat="46.62178" lon="5.74646">
        <ele>525.5</ele>
        <time>2013-08-01T07:14:37Z</time>
      </trkpt>
      <trkpt lat="46.62123" lon="5.74553">
        <ele>524.54</ele>
        <time>2013-08-01T07:14:54Z</time>
      </trkpt>
      <trkpt lat="46.62108" lon="5.74531">
        <ele>524.54</ele>
        <time>2013-08-01T07:14:58Z</time>
      </trkpt>
      <trkpt lat="46.62023" lon="5.74451">
        <ele>521.17</ele>
        <time>2013-08-01T07:15:14Z</time>
      </trkpt>
      <trkpt lat="46.61965" lon="5.74397">
        <ele>518.29</ele>
        <time>2013-08-01T07:15:23Z</time>
      </trkpt>
      <trkpt lat="46.6192" lon="5.74312">
        <ele>514.92</ele>
        <time>2013-08-01T07:15:32Z</time>
      </trkpt>
      <trkpt lat="46.61908" lon="5.7427">
        <ele>513</ele>
        <time>2013-08-01T07:15:36Z</time>
      </trkpt>
      <trkpt lat="46.61881" lon="5.742">
        <ele>511.08</ele>
        <time>2013-08-01T07:15:43Z</time>
      </trkpt>
      <trkpt lat="46.61837" lon="5.74127">
        <ele>508.19</ele>
        <time>2013-08-01T07:15:51Z</time>
      </trkpt>
      <trkpt lat="46.61803" lon="5.74072">
        <ele>506.27</ele>
        <time>2013-08-01T07:15:57Z</time>
      </trkpt>
      <trkpt lat="46.61708" lon="5.73946">
        <ele>503.87</ele>
        <time>2013-08-01T07:16:13Z</time>
      </trkpt>
      <trkpt lat="46.61615" lon="5.7387">
        <ele>501.46</ele>
        <time>2013-08-01T07:16:28Z</time>
      </trkpt>
      <trkpt lat="46.6155" lon="5.73778">
        <ele>498.1</ele>
        <time>2013-08-01T07:16:40Z</time>
      </trkpt>
      <trkpt lat="46.61485" lon="5.73676">
        <ele>495.22</ele>
        <time>2013-08-01T07:16:53Z</time>
      </trkpt>
      <trkpt lat="46.61433" lon="5.73556">
        <ele>492.33</ele>
        <time>2013-08-01T07:17:06Z</time>
      </trkpt>
      <trkpt lat="46.61373" lon="5.73472">
        <ele>489.45</ele>
        <time>2013-08-01T07:17:17Z</time>
      </trkpt>
      <trkpt lat="46.61303" lon="5.73412">
        <ele>487.05</ele>
        <time>2013-08-01T07:17:28Z</time>
      </trkpt>
      <trkpt lat="46.61216" lon="5.73281">
        <ele>483.68</ele>
        <time>2013-08-01T07:17:45Z</time>
      </trkpt>
      <trkpt lat="46.6117" lon="5.73148">
        <ele>481.28</ele>
        <time>2013-08-01T07:17:59Z</time>
      </trkpt>
      <trkpt lat="46.61108" lon="5.73064">
        <ele>478.39</ele>
        <time>2013-08-01T07:18:11Z</time>
      </trkpt>
      <trkpt lat="46.61035" lon="5.72989">
        <ele>476.95</ele>
        <time>2013-08-01T07:18:25Z</time>
      </trkpt>
      <trkpt lat="46.60982" lon="5.72937">
        <ele>473.59</ele>
        <time>2013-08-01T07:18:33Z</time>
      </trkpt>
      <trkpt lat="46.60974" lon="5.72931">
        <ele>473.59</ele>
        <time>2013-08-01T07:18:34Z</time>
      </trkpt>
      <trkpt lat="46.60916" lon="5.7292">
        <ele>469.74</ele>
        <time>2013-08-01T07:18:41Z</time>
      </trkpt>
      <trkpt lat="46.60804" lon="5.72984">
        <ele>465.42</ele>
        <time>2013-08-01T07:18:56Z</time>
      </trkpt>
      <trkpt lat="46.60791" lon="5.72992">
        <ele>465.9</ele>
        <time>2013-08-01T07:18:58Z</time>
      </trkpt>
      <trkpt lat="46.60765" lon="5.72997">
        <ele>466.38</ele>
        <time>2013-08-01T07:19:02Z</time>
      </trkpt>
      <trkpt lat="46.60744" lon="5.73019">
        <ele>466.86</ele>
        <time>2013-08-01T07:19:07Z</time>
      </trkpt>
      <trkpt lat="46.60722" lon="5.73068">
        <ele>469.74</ele>
        <time>2013-08-01T07:19:20Z</time>
      </trkpt>
      <trkpt lat="46.60718" lon="5.73114">
        <ele>472.14</ele>
        <time>2013-08-01T07:19:35Z</time>
      </trkpt>
      <trkpt lat="46.60726" lon="5.7316">
        <ele>475.03</ele>
        <time>2013-08-01T07:19:50Z</time>
      </trkpt>
      <trkpt lat="46.60738" lon="5.73203">
        <ele>478.39</ele>
        <time>2013-08-01T07:20:05Z</time>
      </trkpt>
      <trkpt lat="46.60748" lon="5.73249">
        <ele>480.8</ele>
        <time>2013-08-01T07:20:20Z</time>
      </trkpt>
      <trkpt lat="46.60762" lon="5.73298">
        <ele>483.68</ele>
        <time>2013-08-01T07:20:37Z</time>
      </trkpt>
      <trkpt lat="46.60783" lon="5.73337">
        <ele>487.05</ele>
        <time>2013-08-01T07:20:53Z</time>
      </trkpt>
      <trkpt lat="46.60806" lon="5.73375">
        <ele>489.45</ele>
        <time>2013-08-01T07:21:09Z</time>
      </trkpt>
      <trkpt lat="46.60831" lon="5.73426">
        <ele>490.89</ele>
        <time>2013-08-01T07:21:27Z</time>
      </trkpt>
      <trkpt lat="46.60862" lon="5.73491">
        <ele>491.37</ele>
        <time>2013-08-01T07:21:45Z</time>
      </trkpt>
      <trkpt lat="46.60871" lon="5.73504">
        <ele>491.85</ele>
        <time>2013-08-01T07:21:56Z</time>
      </trkpt>
      <trkpt lat="46.60873" lon="5.73506">
        <ele>492.33</ele>
        <time>2013-08-01T07:22:10Z</time>
      </trkpt>
      <trkpt lat="46.60882" lon="5.73518">
        <ele>492.81</ele>
        <time>2013-08-01T07:22:15Z</time>
      </trkpt>
      <trkpt lat="46.60919" lon="5.73582">
        <ele>493.77</ele>
        <time>2013-08-01T07:22:32Z</time>
      </trkpt>
      <trkpt lat="46.60966" lon="5.73639">
        <ele>494.26</ele>
        <time>2013-08-01T07:22:48Z</time>
      </trkpt>
      <trkpt lat="46.61034" lon="5.73697">
        <ele>494.74</ele>
        <time>2013-08-01T07:23:07Z</time>
      </trkpt>
      <trkpt lat="46.61078" lon="5.7377">
        <ele>495.7</ele>
        <time>2013-08-01T07:23:24Z</time>
      </trkpt>
      <trkpt lat="46.61097" lon="5.73813">
        <ele>496.18</ele>
        <time>2013-08-01T07:23:33Z</time>
      </trkpt>
      <trkpt lat="46.61131" lon="5.73892">
        <ele>496.66</ele>
        <time>2013-08-01T07:23:49Z</time>
      </trkpt>
      <trkpt lat="46.61175" lon="5.73989">
        <ele>499.06</ele>
        <time>2013-08-01T07:24:12Z</time>
      </trkpt>
      <trkpt lat="46.61191" lon="5.74055">
        <ele>500.5</ele>
        <time>2013-08-01T07:24:27Z</time>
      </trkpt>
      <trkpt lat="46.61204" lon="5.74131">
        <ele>502.43</ele>
        <time>2013-08-01T07:24:44Z</time>
      </trkpt>
      <trkpt lat="46.61231" lon="5.742">
        <ele>503.39</ele>
        <time>2013-08-01T07:25:01Z</time>
      </trkpt>
      <trkpt lat="46.61262" lon="5.74281">
        <ele>503.87</ele>
        <time>2013-08-01T07:25:20Z</time>
      </trkpt>
      <trkpt lat="46.61292" lon="5.74356">
        <ele>505.79</ele>
        <time>2013-08-01T07:25:38Z</time>
      </trkpt>
      <trkpt lat="46.61319" lon="5.74426">
        <ele>507.71</ele>
        <time>2013-08-01T07:25:56Z</time>
      </trkpt>
      <trkpt lat="46.61343" lon="5.74481">
        <ele>510.6</ele>
        <time>2013-08-01T07:26:15Z</time>
      </trkpt>
      <trkpt lat="46.61359" lon="5.74502">
        <ele>513</ele>
        <time>2013-08-01T07:26:25Z</time>
      </trkpt>
      <trkpt lat="46.61378" lon="5.74517">
        <ele>515.88</ele>
        <time>2013-08-01T07:26:38Z</time>
      </trkpt>
      <trkpt lat="46.61402" lon="5.74536">
        <ele>518.77</ele>
        <time>2013-08-01T07:26:55Z</time>
      </trkpt>
      <trkpt lat="46.61417" lon="5.74561">
        <ele>520.69</ele>
        <time>2013-08-01T07:27:10Z</time>
      </trkpt>
      <trkpt lat="46.61418" lon="5.74566">
        <ele>521.17</ele>
        <time>2013-08-01T07:27:20Z</time>
      </trkpt>
      <trkpt lat="46.61416" lon="5.74563">
        <ele>521.65</ele>
        <time>2013-08-01T07:27:58Z</time>
      </trkpt>
      <trkpt lat="46.61414" lon="5.7456">
        <ele>520.69</ele>
        <time>2013-08-01T07:28:35Z</time>
      </trkpt>
      <trkpt lat="46.61413" lon="5.74558">
        <ele>519.73</ele>
        <time>2013-08-01T07:28:51Z</time>
      </trkpt>
      <trkpt lat="46.61417" lon="5.74562">
        <ele>521.17</ele>
        <time>2013-08-01T07:29:04Z</time>
      </trkpt>
      <trkpt lat="46.61416" lon="5.74559">
        <ele>520.69</ele>
        <time>2013-08-01T07:29:20Z</time>
      </trkpt>
      <trkpt lat="46.61412" lon="5.74557">
        <ele>520.21</ele>
        <time>2013-08-01T07:29:48Z</time>
      </trkpt>
      <trkpt lat="46.61415" lon="5.74558">
        <ele>521.17</ele>
        <time>2013-08-01T07:30:14Z</time>
      </trkpt>
      <trkpt lat="46.61414" lon="5.74558">
        <ele>520.21</ele>
        <time>2013-08-01T07:30:49Z</time>
      </trkpt>
      <trkpt lat="46.61411" lon="5.74552">
        <ele>520.21</ele>
        <time>2013-08-01T07:31:26Z</time>
      </trkpt>
      <trkpt lat="46.6141" lon="5.74546">
        <ele>521.17</ele>
        <time>2013-08-01T07:31:58Z</time>
      </trkpt>
      <trkpt lat="46.61416" lon="5.74562">
        <ele>521.65</ele>
        <time>2013-08-01T07:32:15Z</time>
      </trkpt>
      <trkpt lat="46.61417" lon="5.74564">
        <ele>522.13</ele>
        <time>2013-08-01T07:32:40Z</time>
      </trkpt>
      <trkpt lat="46.61416" lon="5.74565">
        <ele>521.17</ele>
        <time>2013-08-01T07:32:56Z</time>
      </trkpt>
      <trkpt lat="46.61411" lon="5.74584">
        <ele>522.13</ele>
        <time>2013-08-01T07:33:04Z</time>
      </trkpt>
      <trkpt lat="46.61397" lon="5.74617">
        <ele>523.09</ele>
        <time>2013-08-01T07:33:18Z</time>
      </trkpt>
      <trkpt lat="46.61378" lon="5.74669">
        <ele>524.54</ele>
        <time>2013-08-01T07:33:34Z</time>
      </trkpt>
      <trkpt lat="46.61362" lon="5.74733">
        <ele>524.54</ele>
        <time>2013-08-01T07:33:48Z</time>
      </trkpt>
      <trkpt lat="46.61375" lon="5.74801">
        <ele>525.02</ele>
        <time>2013-08-01T07:34:01Z</time>
      </trkpt>
      <trkpt lat="46.61384" lon="5.7487">
        <ele>525.98</ele>
        <time>2013-08-01T07:34:16Z</time>
      </trkpt>
      <trkpt lat="46.61387" lon="5.74914">
        <ele>526.94</ele>
        <time>2013-08-01T07:34:27Z</time>
      </trkpt>
      <trkpt lat="46.61385" lon="5.74958">
        <ele>527.42</ele>
        <time>2013-08-01T07:34:38Z</time>
      </trkpt>
      <trkpt lat="46.61382" lon="5.75013">
        <ele>528.86</ele>
        <time>2013-08-01T07:34:49Z</time>
      </trkpt>
      <trkpt lat="46.61375" lon="5.75072">
        <ele>530.3</ele>
        <time>2013-08-01T07:35:03Z</time>
      </trkpt>
      <trkpt lat="46.61371" lon="5.75117">
        <ele>531.75</ele>
        <time>2013-08-01T07:35:15Z</time>
      </trkpt>
      <trkpt lat="46.61361" lon="5.75137">
        <ele>532.23</ele>
        <time>2013-08-01T07:35:24Z</time>
      </trkpt>
      <trkpt lat="46.61362" lon="5.75141">
        <ele>532.23</ele>
        <time>2013-08-01T07:35:27Z</time>
      </trkpt>
      <trkpt lat="46.61364" lon="5.75152">
        <ele>533.19</ele>
        <time>2013-08-01T07:35:39Z</time>
      </trkpt>
      <trkpt lat="46.61363" lon="5.7515">
        <ele>532.71</ele>
        <time>2013-08-01T07:35:50Z</time>
      </trkpt>
      <trkpt lat="46.61362" lon="5.75146">
        <ele>532.23</ele>
        <time>2013-08-01T07:36:04Z</time>
      </trkpt>
      <trkpt lat="46.61362" lon="5.75146">
        <ele>532.71</ele>
        <time>2013-08-01T07:36:22Z</time>
      </trkpt>
      <trkpt lat="46.61364" lon="5.75149">
        <ele>532.71</ele>
        <time>2013-08-01T07:36:49Z</time>
      </trkpt>
      <trkpt lat="46.61368" lon="5.75155">
        <ele>532.71</ele>
        <time>2013-08-01T07:37:26Z</time>
      </trkpt>
      <trkpt lat="46.6137" lon="5.75158">
        <ele>532.71</ele>
        <time>2013-08-01T07:37:47Z</time>
      </trkpt>
      <trkpt lat="46.61368" lon="5.7516">
        <ele>533.67</ele>
        <time>2013-08-01T07:38:20Z</time>
      </trkpt>
      <trkpt lat="46.61368" lon="5.75171">
        <ele>534.63</ele>
        <time>2013-08-01T07:38:29Z</time>
      </trkpt>
      <trkpt lat="46.6137" lon="5.75182">
        <ele>535.11</ele>
        <time>2013-08-01T07:38:34Z</time>
      </trkpt>
      <trkpt lat="46.6137" lon="5.75197">
        <ele>535.59</ele>
        <time>2013-08-01T07:38:41Z</time>
      </trkpt>
      <trkpt lat="46.61371" lon="5.75216">
        <ele>536.55</ele>
        <time>2013-08-01T07:38:47Z</time>
      </trkpt>
      <trkpt lat="46.61372" lon="5.75229">
        <ele>537.51</ele>
        <time>2013-08-01T07:38:51Z</time>
      </trkpt>
      <trkpt lat="46.61373" lon="5.75274">
        <ele>539.44</ele>
        <time>2013-08-01T07:39:08Z</time>
      </trkpt>
      <trkpt lat="46.61372" lon="5.75286">
        <ele>541.36</ele>
        <time>2013-08-01T07:39:15Z</time>
      </trkpt>
      <trkpt lat="46.61377" lon="5.75301">
        <ele>542.32</ele>
        <time>2013-08-01T07:39:21Z</time>
      </trkpt>
      <trkpt lat="46.61388" lon="5.75325">
        <ele>545.2</ele>
        <time>2013-08-01T07:39:35Z</time>
      </trkpt>
      <trkpt lat="46.61389" lon="5.75327">
        <ele>545.69</ele>
        <time>2013-08-01T07:39:36Z</time>
      </trkpt>
      <trkpt lat="46.61395" lon="5.75334">
        <ele>546.17</ele>
        <time>2013-08-01T07:39:40Z</time>
      </trkpt>
      <trkpt lat="46.61401" lon="5.7534">
        <ele>547.13</ele>
        <time>2013-08-01T07:39:44Z</time>
      </trkpt>
      <trkpt lat="46.61421" lon="5.75362">
        <ele>549.05</ele>
        <time>2013-08-01T07:39:57Z</time>
      </trkpt>
      <trkpt lat="46.61426" lon="5.75366">
        <ele>549.53</ele>
        <time>2013-08-01T07:40:01Z</time>
      </trkpt>
      <trkpt lat="46.6145" lon="5.75383">
        <ele>551.45</ele>
        <time>2013-08-01T07:40:15Z</time>
      </trkpt>
      <trkpt lat="46.6147" lon="5.75401">
        <ele>554.34</ele>
        <time>2013-08-01T07:40:30Z</time>
      </trkpt>
      <trkpt lat="46.61482" lon="5.75408">
        <ele>556.26</ele>
        <time>2013-08-01T07:40:38Z</time>
      </trkpt>
      <trkpt lat="46.61489" lon="5.75418">
        <ele>556.74</ele>
        <time>2013-08-01T07:40:42Z</time>
      </trkpt>
      <trkpt lat="46.61495" lon="5.75429">
        <ele>557.7</ele>
        <time>2013-08-01T07:40:46Z</time>
      </trkpt>
      <trkpt lat="46.61498" lon="5.7545">
        <ele>559.62</ele>
        <time>2013-08-01T07:40:57Z</time>
      </trkpt>
      <trkpt lat="46.61494" lon="5.75477">
        <ele>561.55</ele>
        <time>2013-08-01T07:41:09Z</time>
      </trkpt>
      <trkpt lat="46.61481" lon="5.75508">
        <ele>564.43</ele>
        <time>2013-08-01T07:41:25Z</time>
      </trkpt>
      <trkpt lat="46.61465" lon="5.75525">
        <ele>565.39</ele>
        <time>2013-08-01T07:41:38Z</time>
      </trkpt>
      <trkpt lat="46.61447" lon="5.75545">
        <ele>566.83</ele>
        <time>2013-08-01T07:41:52Z</time>
      </trkpt>
      <trkpt lat="46.61424" lon="5.75562">
        <ele>569.24</ele>
        <time>2013-08-01T07:42:07Z</time>
      </trkpt>
      <trkpt lat="46.61405" lon="5.75574">
        <ele>570.68</ele>
        <time>2013-08-01T07:42:21Z</time>
      </trkpt>
      <trkpt lat="46.61385" lon="5.75583">
        <ele>573.08</ele>
        <time>2013-08-01T07:42:34Z</time>
      </trkpt>
      <trkpt lat="46.61376" lon="5.75593">
        <ele>573.08</ele>
        <time>2013-08-01T07:42:41Z</time>
      </trkpt>
      <trkpt lat="46.61363" lon="5.75603">
        <ele>574.04</ele>
        <time>2013-08-01T07:42:49Z</time>
      </trkpt>
      <trkpt lat="46.61342" lon="5.75625">
        <ele>575.01</ele>
        <time>2013-08-01T07:43:02Z</time>
      </trkpt>
      <trkpt lat="46.61317" lon="5.75645">
        <ele>576.45</ele>
        <time>2013-08-01T07:43:12Z</time>
      </trkpt>
      <trkpt lat="46.61301" lon="5.7566">
        <ele>576.45</ele>
        <time>2013-08-01T07:43:17Z</time>
      </trkpt>
      <trkpt lat="46.61295" lon="5.75668">
        <ele>577.41</ele>
        <time>2013-08-01T07:43:23Z</time>
      </trkpt>
      <trkpt lat="46.61267" lon="5.7569">
        <ele>579.81</ele>
        <time>2013-08-01T07:43:37Z</time>
      </trkpt>
      <trkpt lat="46.61245" lon="5.75706">
        <ele>582.7</ele>
        <time>2013-08-01T07:43:48Z</time>
      </trkpt>
      <trkpt lat="46.61216" lon="5.75733">
        <ele>584.62</ele>
        <time>2013-08-01T07:44:00Z</time>
      </trkpt>
      <trkpt lat="46.61196" lon="5.75753">
        <ele>585.58</ele>
        <time>2013-08-01T07:44:10Z</time>
      </trkpt>
      <trkpt lat="46.61194" lon="5.75758">
        <ele>586.06</ele>
        <time>2013-08-01T07:44:13Z</time>
      </trkpt>
      <trkpt lat="46.6119" lon="5.75767">
        <ele>586.06</ele>
        <time>2013-08-01T07:44:17Z</time>
      </trkpt>
      <trkpt lat="46.61187" lon="5.75771">
        <ele>586.54</ele>
        <time>2013-08-01T07:44:19Z</time>
      </trkpt>
      <trkpt lat="46.61168" lon="5.75799">
        <ele>587.5</ele>
        <time>2013-08-01T07:44:32Z</time>
      </trkpt>
      <trkpt lat="46.61161" lon="5.7581">
        <ele>588.95</ele>
        <time>2013-08-01T07:44:36Z</time>
      </trkpt>
      <trkpt lat="46.61157" lon="5.75819">
        <ele>589.43</ele>
        <time>2013-08-01T07:44:41Z</time>
      </trkpt>
      <trkpt lat="46.61133" lon="5.75857">
        <ele>592.79</ele>
        <time>2013-08-01T07:44:53Z</time>
      </trkpt>
      <trkpt lat="46.61116" lon="5.759">
        <ele>595.67</ele>
        <time>2013-08-01T07:45:04Z</time>
      </trkpt>
      <trkpt lat="46.61105" lon="5.75954">
        <ele>598.08</ele>
        <time>2013-08-01T07:45:20Z</time>
      </trkpt>
      <trkpt lat="46.61093" lon="5.76006">
        <ele>599.52</ele>
        <time>2013-08-01T07:45:37Z</time>
      </trkpt>
      <trkpt lat="46.61067" lon="5.76044">
        <ele>600.96</ele>
        <time>2013-08-01T07:45:54Z</time>
      </trkpt>
      <trkpt lat="46.61057" lon="5.7608">
        <ele>601.44</ele>
        <time>2013-08-01T07:46:06Z</time>
      </trkpt>
      <trkpt lat="46.61054" lon="5.76102">
        <ele>600.96</ele>
        <time>2013-08-01T07:46:12Z</time>
      </trkpt>
      <trkpt lat="46.61034" lon="5.76146">
        <ele>599.52</ele>
        <time>2013-08-01T07:46:22Z</time>
      </trkpt>
      <trkpt lat="46.61004" lon="5.76193">
        <ele>600</ele>
        <time>2013-08-01T07:46:33Z</time>
      </trkpt>
      <trkpt lat="46.60984" lon="5.76246">
        <ele>600.48</ele>
        <time>2013-08-01T07:46:44Z</time>
      </trkpt>
      <trkpt lat="46.60973" lon="5.76303">
        <ele>600.96</ele>
        <time>2013-08-01T07:46:54Z</time>
      </trkpt>
      <trkpt lat="46.60958" lon="5.76368">
        <ele>600.48</ele>
        <time>2013-08-01T07:47:06Z</time>
      </trkpt>
      <trkpt lat="46.60968" lon="5.76435">
        <ele>601.92</ele>
        <time>2013-08-01T07:47:18Z</time>
      </trkpt>
      <trkpt lat="46.60983" lon="5.76472">
        <ele>602.4</ele>
        <time>2013-08-01T07:47:25Z</time>
      </trkpt>
      <trkpt lat="46.60995" lon="5.76508">
        <ele>603.85</ele>
        <time>2013-08-01T07:47:34Z</time>
      </trkpt>
      <trkpt lat="46.61006" lon="5.76562">
        <ele>604.33</ele>
        <time>2013-08-01T07:47:47Z</time>
      </trkpt>
      <trkpt lat="46.61007" lon="5.76618">
        <ele>604.33</ele>
        <time>2013-08-01T07:47:58Z</time>
      </trkpt>
      <trkpt lat="46.61006" lon="5.76631">
        <ele>603.85</ele>
        <time>2013-08-01T07:48:00Z</time>
      </trkpt>
      <trkpt lat="46.60998" lon="5.7667">
        <ele>602.88</ele>
        <time>2013-08-01T07:48:06Z</time>
      </trkpt>
      <trkpt lat="46.60997" lon="5.76762">
        <ele>601.44</ele>
        <time>2013-08-01T07:48:18Z</time>
      </trkpt>
      <trkpt lat="46.60984" lon="5.76834">
        <ele>599.52</ele>
        <time>2013-08-01T07:48:27Z</time>
      </trkpt>
      <trkpt lat="46.60986" lon="5.76842">
        <ele>599.04</ele>
        <time>2013-08-01T07:48:28Z</time>
      </trkpt>
      <trkpt lat="46.60997" lon="5.76864">
        <ele>599.04</ele>
        <time>2013-08-01T07:48:31Z</time>
      </trkpt>
      <trkpt lat="46.61005" lon="5.76874">
        <ele>598.56</ele>
        <time>2013-08-01T07:48:33Z</time>
      </trkpt>
      <trkpt lat="46.61014" lon="5.76883">
        <ele>598.56</ele>
        <time>2013-08-01T07:48:35Z</time>
      </trkpt>
      <trkpt lat="46.61037" lon="5.76891">
        <ele>598.08</ele>
        <time>2013-08-01T07:48:40Z</time>
      </trkpt>
      <trkpt lat="46.61055" lon="5.76898">
        <ele>598.08</ele>
        <time>2013-08-01T07:48:44Z</time>
      </trkpt>
      <trkpt lat="46.61077" lon="5.76903">
        <ele>596.64</ele>
        <time>2013-08-01T07:48:49Z</time>
      </trkpt>
      <trkpt lat="46.61115" lon="5.76904">
        <ele>594.23</ele>
        <time>2013-08-01T07:48:55Z</time>
      </trkpt>
      <trkpt lat="46.61122" lon="5.769">
        <ele>593.75</ele>
        <time>2013-08-01T07:48:56Z</time>
      </trkpt>
      <trkpt lat="46.61135" lon="5.76888">
        <ele>591.83</ele>
        <time>2013-08-01T07:48:58Z</time>
      </trkpt>
      <trkpt lat="46.61167" lon="5.76849">
        <ele>587.98</ele>
        <time>2013-08-01T07:49:04Z</time>
      </trkpt>
      <trkpt lat="46.6118" lon="5.76849">
        <ele>587.5</ele>
        <time>2013-08-01T07:49:06Z</time>
      </trkpt>
      <trkpt lat="46.61208" lon="5.76855">
        <ele>587.5</ele>
        <time>2013-08-01T07:49:12Z</time>
      </trkpt>
      <trkpt lat="46.61221" lon="5.76868">
        <ele>587.5</ele>
        <time>2013-08-01T07:49:16Z</time>
      </trkpt>
      <trkpt lat="46.61231" lon="5.76884">
        <ele>587.5</ele>
        <time>2013-08-01T07:49:26Z</time>
      </trkpt>
      <trkpt lat="46.61231" lon="5.76884">
        <ele>587.5</ele>
        <time>2013-08-01T07:49:27Z</time>
      </trkpt>
      <trkpt lat="46.61223" lon="5.76867">
        <ele>587.02</ele>
        <time>2013-08-01T07:49:38Z</time>
      </trkpt>
      <trkpt lat="46.61229" lon="5.76856">
        <ele>587.02</ele>
        <time>2013-08-01T07:49:50Z</time>
      </trkpt>
      <trkpt lat="46.61232" lon="5.76848">
        <ele>586.54</ele>
        <time>2013-08-01T07:50:00Z</time>
      </trkpt>
      <trkpt lat="46.6124" lon="5.76836">
        <ele>587.5</ele>
        <time>2013-08-01T07:50:13Z</time>
      </trkpt>
      <trkpt lat="46.61248" lon="5.76823">
        <ele>587.5</ele>
        <time>2013-08-01T07:50:27Z</time>
      </trkpt>
      <trkpt lat="46.61255" lon="5.76827">
        <ele>587.5</ele>
        <time>2013-08-01T07:50:42Z</time>
      </trkpt>
      <trkpt lat="46.61253" lon="5.76833">
        <ele>587.02</ele>
        <time>2013-08-01T07:51:04Z</time>
      </trkpt>
      <trkpt lat="46.61251" lon="5.76844">
        <ele>587.02</ele>
        <time>2013-08-01T07:51:41Z</time>
      </trkpt>
      <trkpt lat="46.6126" lon="5.76854">
        <ele>587.02</ele>
        <time>2013-08-01T07:52:17Z</time>
      </trkpt>
      <trkpt lat="46.61261" lon="5.76853">
        <ele>587.5</ele>
        <time>2013-08-01T07:52:52Z</time>
      </trkpt>
      <trkpt lat="46.61255" lon="5.76845">
        <ele>587.02</ele>
        <time>2013-08-01T07:53:35Z</time>
      </trkpt>
      <trkpt lat="46.61254" lon="5.76847">
        <ele>587.02</ele>
        <time>2013-08-01T07:54:09Z</time>
      </trkpt>
      <trkpt lat="46.61254" lon="5.76851">
        <ele>587.02</ele>
        <time>2013-08-01T07:54:42Z</time>
      </trkpt>
      <trkpt lat="46.61252" lon="5.76857">
        <ele>587.02</ele>
        <time>2013-08-01T07:55:15Z</time>
      </trkpt>
      <trkpt lat="46.61253" lon="5.7685">
        <ele>587.02</ele>
        <time>2013-08-01T07:55:50Z</time>
      </trkpt>
      <trkpt lat="46.61252" lon="5.7684">
        <ele>587.5</ele>
        <time>2013-08-01T07:56:26Z</time>
      </trkpt>
      <trkpt lat="46.61251" lon="5.76832">
        <ele>587.02</ele>
        <time>2013-08-01T07:57:01Z</time>
      </trkpt>
      <trkpt lat="46.61248" lon="5.76833">
        <ele>587.02</ele>
        <time>2013-08-01T07:57:36Z</time>
      </trkpt>
      <trkpt lat="46.61255" lon="5.76858">
        <ele>587.98</ele>
        <time>2013-08-01T07:58:19Z</time>
      </trkpt>
      <trkpt lat="46.61255" lon="5.76853">
        <ele>588.46</ele>
        <time>2013-08-01T07:58:56Z</time>
      </trkpt>
      <trkpt lat="46.61253" lon="5.76844">
        <ele>588.46</ele>
        <time>2013-08-01T07:59:35Z</time>
      </trkpt>
      <trkpt lat="46.61252" lon="5.7683">
        <ele>588.46</ele>
        <time>2013-08-01T08:00:20Z</time>
      </trkpt>
      <trkpt lat="46.61246" lon="5.76836">
        <ele>588.46</ele>
        <time>2013-08-01T08:00:58Z</time>
      </trkpt>
      <trkpt lat="46.61249" lon="5.7685">
        <ele>587.98</ele>
        <time>2013-08-01T08:01:35Z</time>
      </trkpt>
      <trkpt lat="46.61262" lon="5.7686">
        <ele>588.46</ele>
        <time>2013-08-01T08:02:11Z</time>
      </trkpt>
      <trkpt lat="46.61255" lon="5.76843">
        <ele>587.98</ele>
        <time>2013-08-01T08:02:48Z</time>
      </trkpt>
      <trkpt lat="46.6126" lon="5.76835">
        <ele>588.95</ele>
        <time>2013-08-01T08:03:27Z</time>
      </trkpt>
      <trkpt lat="46.61263" lon="5.76839">
        <ele>589.43</ele>
        <time>2013-08-01T08:04:03Z</time>
      </trkpt>
      <trkpt lat="46.61266" lon="5.7684">
        <ele>589.91</ele>
        <time>2013-08-01T08:04:37Z</time>
      </trkpt>
      <trkpt lat="46.61253" lon="5.76836">
        <ele>590.39</ele>
        <time>2013-08-01T08:05:21Z</time>
      </trkpt>
      <trkpt lat="46.61254" lon="5.76842">
        <ele>591.35</ele>
        <time>2013-08-01T08:06:00Z</time>
      </trkpt>
      <trkpt lat="46.61261" lon="5.76845">
        <ele>591.35</ele>
        <time>2013-08-01T08:06:40Z</time>
      </trkpt>
      <trkpt lat="46.61253" lon="5.76841">
        <ele>591.83</ele>
        <time>2013-08-01T08:07:15Z</time>
      </trkpt>
      <trkpt lat="46.61254" lon="5.76841">
        <ele>592.31</ele>
        <time>2013-08-01T08:07:55Z</time>
      </trkpt>
      <trkpt lat="46.61253" lon="5.76852">
        <ele>592.31</ele>
        <time>2013-08-01T08:08:35Z</time>
      </trkpt>
      <trkpt lat="46.61252" lon="5.76853">
        <ele>593.27</ele>
        <time>2013-08-01T08:09:11Z</time>
      </trkpt>
      <trkpt lat="46.61249" lon="5.76853">
        <ele>593.27</ele>
        <time>2013-08-01T08:09:48Z</time>
      </trkpt>
      <trkpt lat="46.6125" lon="5.76855">
        <ele>593.75</ele>
        <time>2013-08-01T08:10:35Z</time>
      </trkpt>
      <trkpt lat="46.61259" lon="5.76841">
        <ele>593.27</ele>
        <time>2013-08-01T08:11:18Z</time>
      </trkpt>
      <trkpt lat="46.61259" lon="5.76849">
        <ele>593.75</ele>
        <time>2013-08-01T08:12:04Z</time>
      </trkpt>
      <trkpt lat="46.6126" lon="5.76848">
        <ele>594.23</ele>
        <time>2013-08-01T08:12:42Z</time>
      </trkpt>
      <trkpt lat="46.61257" lon="5.76847">
        <ele>594.23</ele>
        <time>2013-08-01T08:13:08Z</time>
      </trkpt>
      <trkpt lat="46.61256" lon="5.76842">
        <ele>595.19</ele>
        <time>2013-08-01T08:13:38Z</time>
      </trkpt>
      <trkpt lat="46.61251" lon="5.76847">
        <ele>594.71</ele>
        <time>2013-08-01T08:13:51Z</time>
      </trkpt>
      <trkpt lat="46.61238" lon="5.76852">
        <ele>595.19</ele>
        <time>2013-08-01T08:14:04Z</time>
      </trkpt>
      <trkpt lat="46.61229" lon="5.76857">
        <ele>594.71</ele>
        <time>2013-08-01T08:14:12Z</time>
      </trkpt>
      <trkpt lat="46.61224" lon="5.76859">
        <ele>595.19</ele>
        <time>2013-08-01T08:14:16Z</time>
      </trkpt>
      <trkpt lat="46.61223" lon="5.76865">
        <ele>594.23</ele>
        <time>2013-08-01T08:14:28Z</time>
      </trkpt>
      <trkpt lat="46.61223" lon="5.76874">
        <ele>595.19</ele>
        <time>2013-08-01T08:14:53Z</time>
      </trkpt>
      <trkpt lat="46.61216" lon="5.76877">
        <ele>594.71</ele>
        <time>2013-08-01T08:15:13Z</time>
      </trkpt>
      <trkpt lat="46.61217" lon="5.76874">
        <ele>595.19</ele>
        <time>2013-08-01T08:15:38Z</time>
      </trkpt>
      <trkpt lat="46.61216" lon="5.76883">
        <ele>594.71</ele>
        <time>2013-08-01T08:16:13Z</time>
      </trkpt>
      <trkpt lat="46.61213" lon="5.76882">
        <ele>595.19</ele>
        <time>2013-08-01T08:16:48Z</time>
      </trkpt>
      <trkpt lat="46.61217" lon="5.76878">
        <ele>595.19</ele>
        <time>2013-08-01T08:17:07Z</time>
      </trkpt>
      <trkpt lat="46.61223" lon="5.76876">
        <ele>595.19</ele>
        <time>2013-08-01T08:17:40Z</time>
      </trkpt>
      <trkpt lat="46.61225" lon="5.76872">
        <ele>595.67</ele>
        <time>2013-08-01T08:17:58Z</time>
      </trkpt>
      <trkpt lat="46.61234" lon="5.76889">
        <ele>596.15</ele>
        <time>2013-08-01T08:18:06Z</time>
      </trkpt>
      <trkpt lat="46.61237" lon="5.76898">
        <ele>596.64</ele>
        <time>2013-08-01T08:18:09Z</time>
      </trkpt>
      <trkpt lat="46.61239" lon="5.76915">
        <ele>596.64</ele>
        <time>2013-08-01T08:18:14Z</time>
      </trkpt>
      <trkpt lat="46.61248" lon="5.76955">
        <ele>596.64</ele>
        <time>2013-08-01T08:18:26Z</time>
      </trkpt>
      <trkpt lat="46.61251" lon="5.76967">
        <ele>597.6</ele>
        <time>2013-08-01T08:18:31Z</time>
      </trkpt>
      <trkpt lat="46.61258" lon="5.76985">
        <ele>600.48</ele>
        <time>2013-08-01T08:18:43Z</time>
      </trkpt>
      <trkpt lat="46.6126" lon="5.76994">
        <ele>601.44</ele>
        <time>2013-08-01T08:18:54Z</time>
      </trkpt>
      <trkpt lat="46.61263" lon="5.77008">
        <ele>602.88</ele>
        <time>2013-08-01T08:19:03Z</time>
      </trkpt>
      <trkpt lat="46.61265" lon="5.77015">
        <ele>602.88</ele>
        <time>2013-08-01T08:19:08Z</time>
      </trkpt>
      <trkpt lat="46.6127" lon="5.77025">
        <ele>603.85</ele>
        <time>2013-08-01T08:19:12Z</time>
      </trkpt>
      <trkpt lat="46.61274" lon="5.77035">
        <ele>604.33</ele>
        <time>2013-08-01T08:19:19Z</time>
      </trkpt>
      <trkpt lat="46.61287" lon="5.7706">
        <ele>606.25</ele>
        <time>2013-08-01T08:19:31Z</time>
      </trkpt>
      <trkpt lat="46.61295" lon="5.77073">
        <ele>607.21</ele>
        <time>2013-08-01T08:19:40Z</time>
      </trkpt>
      <trkpt lat="46.61302" lon="5.7708">
        <ele>607.69</ele>
        <time>2013-08-01T08:19:45Z</time>
      </trkpt>
      <trkpt lat="46.61308" lon="5.77086">
        <ele>607.21</ele>
        <time>2013-08-01T08:19:49Z</time>
      </trkpt>
      <trkpt lat="46.61311" lon="5.77088">
        <ele>607.69</ele>
        <time>2013-08-01T08:19:51Z</time>
      </trkpt>
      <trkpt lat="46.6132" lon="5.771">
        <ele>607.69</ele>
        <time>2013-08-01T08:19:56Z</time>
      </trkpt>
      <trkpt lat="46.61326" lon="5.7711">
        <ele>608.65</ele>
        <time>2013-08-01T08:20:02Z</time>
      </trkpt>
      <trkpt lat="46.61335" lon="5.77146">
        <ele>609.61</ele>
        <time>2013-08-01T08:20:14Z</time>
      </trkpt>
      <trkpt lat="46.61334" lon="5.77156">
        <ele>609.13</ele>
        <time>2013-08-01T08:20:26Z</time>
      </trkpt>
      <trkpt lat="46.61332" lon="5.77171">
        <ele>609.13</ele>
        <time>2013-08-01T08:20:38Z</time>
      </trkpt>
      <trkpt lat="46.6133" lon="5.77178">
        <ele>608.65</ele>
        <time>2013-08-01T08:20:41Z</time>
      </trkpt>
      <trkpt lat="46.61325" lon="5.77189">
        <ele>608.17</ele>
        <time>2013-08-01T08:20:45Z</time>
      </trkpt>
      <trkpt lat="46.61314" lon="5.7722">
        <ele>607.69</ele>
        <time>2013-08-01T08:20:54Z</time>
      </trkpt>
      <trkpt lat="46.61313" lon="5.77224">
        <ele>606.73</ele>
        <time>2013-08-01T08:20:55Z</time>
      </trkpt>
      <trkpt lat="46.61308" lon="5.77232">
        <ele>606.73</ele>
        <time>2013-08-01T08:20:58Z</time>
      </trkpt>
      <trkpt lat="46.61302" lon="5.77249">
        <ele>607.21</ele>
        <time>2013-08-01T08:21:03Z</time>
      </trkpt>
      <trkpt lat="46.61298" lon="5.77256">
        <ele>606.73</ele>
        <time>2013-08-01T08:21:06Z</time>
      </trkpt>
      <trkpt lat="46.6129" lon="5.77276">
        <ele>605.77</ele>
        <time>2013-08-01T08:21:16Z</time>
      </trkpt>
      <trkpt lat="46.61289" lon="5.77301">
        <ele>606.25</ele>
        <time>2013-08-01T08:21:25Z</time>
      </trkpt>
      <trkpt lat="46.61289" lon="5.77306">
        <ele>605.77</ele>
        <time>2013-08-01T08:21:27Z</time>
      </trkpt>
      <trkpt lat="46.61283" lon="5.77337">
        <ele>604.81</ele>
        <time>2013-08-01T08:21:38Z</time>
      </trkpt>
      <trkpt lat="46.61293" lon="5.77335">
        <ele>605.77</ele>
        <time>2013-08-01T08:21:52Z</time>
      </trkpt>
      <trkpt lat="46.61293" lon="5.77334">
        <ele>606.25</ele>
        <time>2013-08-01T08:21:53Z</time>
      </trkpt>
      <trkpt lat="46.61285" lon="5.77337">
        <ele>606.25</ele>
        <time>2013-08-01T08:22:06Z</time>
      </trkpt>
      <trkpt lat="46.61282" lon="5.77342">
        <ele>606.25</ele>
        <time>2013-08-01T08:22:11Z</time>
      </trkpt>
      <trkpt lat="46.61278" lon="5.77358">
        <ele>605.77</ele>
        <time>2013-08-01T08:22:16Z</time>
      </trkpt>
      <trkpt lat="46.61272" lon="5.77377">
        <ele>604.33</ele>
        <time>2013-08-01T08:22:27Z</time>
      </trkpt>
      <trkpt lat="46.61267" lon="5.77396">
        <ele>605.29</ele>
        <time>2013-08-01T08:22:40Z</time>
      </trkpt>
      <trkpt lat="46.61263" lon="5.77405">
        <ele>604.81</ele>
        <time>2013-08-01T08:22:46Z</time>
      </trkpt>
      <trkpt lat="46.61259" lon="5.77408">
        <ele>604.81</ele>
        <time>2013-08-01T08:22:50Z</time>
      </trkpt>
      <trkpt lat="46.61253" lon="5.77409">
        <ele>605.29</ele>
        <time>2013-08-01T08:22:58Z</time>
      </trkpt>
      <trkpt lat="46.61238" lon="5.77419">
        <ele>605.29</ele>
        <time>2013-08-01T08:23:06Z</time>
      </trkpt>
      <trkpt lat="46.61204" lon="5.77424">
        <ele>607.69</ele>
        <time>2013-08-01T08:23:20Z</time>
      </trkpt>
      <trkpt lat="46.61194" lon="5.77425">
        <ele>607.69</ele>
        <time>2013-08-01T08:23:32Z</time>
      </trkpt>
      <trkpt lat="46.61187" lon="5.77432">
        <ele>607.69</ele>
        <time>2013-08-01T08:23:44Z</time>
      </trkpt>
      <trkpt lat="46.61181" lon="5.77438">
        <ele>607.69</ele>
        <time>2013-08-01T08:23:59Z</time>
      </trkpt>
      <trkpt lat="46.61176" lon="5.7744">
        <ele>607.21</ele>
        <time>2013-08-01T08:24:13Z</time>
      </trkpt>
      <trkpt lat="46.61174" lon="5.77443">
        <ele>607.21</ele>
        <time>2013-08-01T08:24:29Z</time>
      </trkpt>
      <trkpt lat="46.61172" lon="5.77451">
        <ele>608.17</ele>
        <time>2013-08-01T08:24:37Z</time>
      </trkpt>
      <trkpt lat="46.61161" lon="5.77462">
        <ele>607.69</ele>
        <time>2013-08-01T08:24:51Z</time>
      </trkpt>
      <trkpt lat="46.61154" lon="5.77473">
        <ele>606.73</ele>
        <time>2013-08-01T08:25:03Z</time>
      </trkpt>
      <trkpt lat="46.6115" lon="5.7748">
        <ele>607.69</ele>
        <time>2013-08-01T08:25:14Z</time>
      </trkpt>
      <trkpt lat="46.61148" lon="5.77482">
        <ele>606.73</ele>
        <time>2013-08-01T08:25:26Z</time>
      </trkpt>
      <trkpt lat="46.61133" lon="5.77486">
        <ele>607.21</ele>
        <time>2013-08-01T08:25:41Z</time>
      </trkpt>
      <trkpt lat="46.61132" lon="5.77486">
        <ele>607.69</ele>
        <time>2013-08-01T08:25:42Z</time>
      </trkpt>
      <trkpt lat="46.61128" lon="5.77487">
        <ele>607.21</ele>
        <time>2013-08-01T08:25:46Z</time>
      </trkpt>
      <trkpt lat="46.61121" lon="5.7749">
        <ele>608.65</ele>
        <time>2013-08-01T08:25:58Z</time>
      </trkpt>
      <trkpt lat="46.61107" lon="5.775">
        <ele>609.61</ele>
        <time>2013-08-01T08:26:05Z</time>
      </trkpt>
      <trkpt lat="46.61096" lon="5.77505">
        <ele>610.09</ele>
        <time>2013-08-01T08:26:11Z</time>
      </trkpt>
      <trkpt lat="46.6106" lon="5.77525">
        <ele>612.5</ele>
        <time>2013-08-01T08:26:26Z</time>
      </trkpt>
      <trkpt lat="46.61022" lon="5.7754">
        <ele>612.98</ele>
        <time>2013-08-01T08:26:40Z</time>
      </trkpt>
      <trkpt lat="46.61" lon="5.77553">
        <ele>612.02</ele>
        <time>2013-08-01T08:26:50Z</time>
      </trkpt>
      <trkpt lat="46.60971" lon="5.77578">
        <ele>609.61</ele>
        <time>2013-08-01T08:27:00Z</time>
      </trkpt>
      <trkpt lat="46.60963" lon="5.77583">
        <ele>609.61</ele>
        <time>2013-08-01T08:27:10Z</time>
      </trkpt>
      <trkpt lat="46.60961" lon="5.77577">
        <ele>609.61</ele>
        <time>2013-08-01T08:27:32Z</time>
      </trkpt>
      <trkpt lat="46.60955" lon="5.77577">
        <ele>609.13</ele>
        <time>2013-08-01T08:27:51Z</time>
      </trkpt>
      <trkpt lat="46.60955" lon="5.77578">
        <ele>609.13</ele>
        <time>2013-08-01T08:28:07Z</time>
      </trkpt>
      <trkpt lat="46.60953" lon="5.77578">
        <ele>608.65</ele>
        <time>2013-08-01T08:28:24Z</time>
      </trkpt>
      <trkpt lat="46.60952" lon="5.77587">
        <ele>608.65</ele>
        <time>2013-08-01T08:28:46Z</time>
      </trkpt>
      <trkpt lat="46.60952" lon="5.77597">
        <ele>608.65</ele>
        <time>2013-08-01T08:29:11Z</time>
      </trkpt>
      <trkpt lat="46.60953" lon="5.77593">
        <ele>609.13</ele>
        <time>2013-08-01T08:29:18Z</time>
      </trkpt>
      <trkpt lat="46.60972" lon="5.77589">
        <ele>610.09</ele>
        <time>2013-08-01T08:29:28Z</time>
      </trkpt>
      <trkpt lat="46.60983" lon="5.77588">
        <ele>610.09</ele>
        <time>2013-08-01T08:29:43Z</time>
      </trkpt>
      <trkpt lat="46.60997" lon="5.77587">
        <ele>609.61</ele>
        <time>2013-08-01T08:30:01Z</time>
      </trkpt>
      <trkpt lat="46.61002" lon="5.77588">
        <ele>609.13</ele>
        <time>2013-08-01T08:30:07Z</time>
      </trkpt>
      <trkpt lat="46.60999" lon="5.77587">
        <ele>609.61</ele>
        <time>2013-08-01T08:30:14Z</time>
      </trkpt>
      <trkpt lat="46.60991" lon="5.77586">
        <ele>610.09</ele>
        <time>2013-08-01T08:30:21Z</time>
      </trkpt>
      <trkpt lat="46.60975" lon="5.77585">
        <ele>610.09</ele>
        <time>2013-08-01T08:30:37Z</time>
      </trkpt>
      <trkpt lat="46.6097" lon="5.77599">
        <ele>609.61</ele>
        <time>2013-08-01T08:30:51Z</time>
      </trkpt>
      <trkpt lat="46.60964" lon="5.77591">
        <ele>610.57</ele>
        <time>2013-08-01T08:31:04Z</time>
      </trkpt>
      <trkpt lat="46.60959" lon="5.77589">
        <ele>609.61</ele>
        <time>2013-08-01T08:31:17Z</time>
      </trkpt>
      <trkpt lat="46.60958" lon="5.77584">
        <ele>609.13</ele>
        <time>2013-08-01T08:31:46Z</time>
      </trkpt>
      <trkpt lat="46.60957" lon="5.77585">
        <ele>609.13</ele>
        <time>2013-08-01T08:32:00Z</time>
      </trkpt>
      <trkpt lat="46.60953" lon="5.77572">
        <ele>609.61</ele>
        <time>2013-08-01T08:32:31Z</time>
      </trkpt>
      <trkpt lat="46.60951" lon="5.77572">
        <ele>609.61</ele>
        <time>2013-08-01T08:33:05Z</time>
      </trkpt>
      <trkpt lat="46.60949" lon="5.77576">
        <ele>610.09</ele>
        <time>2013-08-01T08:33:36Z</time>
      </trkpt>
      <trkpt lat="46.60923" lon="5.77594">
        <ele>609.61</ele>
        <time>2013-08-01T08:33:48Z</time>
      </trkpt>
      <trkpt lat="46.60872" lon="5.77588">
        <ele>608.65</ele>
        <time>2013-08-01T08:34:03Z</time>
      </trkpt>
      <trkpt lat="46.60841" lon="5.77587">
        <ele>609.13</ele>
        <time>2013-08-01T08:34:15Z</time>
      </trkpt>
      <trkpt lat="46.60807" lon="5.77588">
        <ele>610.57</ele>
        <time>2013-08-01T08:34:28Z</time>
      </trkpt>
      <trkpt lat="46.6077" lon="5.77614">
        <ele>610.09</ele>
        <time>2013-08-01T08:34:43Z</time>
      </trkpt>
      <trkpt lat="46.6073" lon="5.77649">
        <ele>608.65</ele>
        <time>2013-08-01T08:34:57Z</time>
      </trkpt>
      <trkpt lat="46.60709" lon="5.77666">
        <ele>609.61</ele>
        <time>2013-08-01T08:35:06Z</time>
      </trkpt>
      <trkpt lat="46.60675" lon="5.77673">
        <ele>610.09</ele>
        <time>2013-08-01T08:35:21Z</time>
      </trkpt>
      <trkpt lat="46.60667" lon="5.77682">
        <ele>609.61</ele>
        <time>2013-08-01T08:35:25Z</time>
      </trkpt>
      <trkpt lat="46.60663" lon="5.77684">
        <ele>610.09</ele>
        <time>2013-08-01T08:35:28Z</time>
      </trkpt>
      <trkpt lat="46.60661" lon="5.77691">
        <ele>610.09</ele>
        <time>2013-08-01T08:35:31Z</time>
      </trkpt>
      <trkpt lat="46.60673" lon="5.7773">
        <ele>608.65</ele>
        <time>2013-08-01T08:35:45Z</time>
      </trkpt>
      <trkpt lat="46.60673" lon="5.77746">
        <ele>607.69</ele>
        <time>2013-08-01T08:35:48Z</time>
      </trkpt>
      <trkpt lat="46.60668" lon="5.77753">
        <ele>607.69</ele>
        <time>2013-08-01T08:35:51Z</time>
      </trkpt>
      <trkpt lat="46.60656" lon="5.77751">
        <ele>608.65</ele>
        <time>2013-08-01T08:35:58Z</time>
      </trkpt>
      <trkpt lat="46.60638" lon="5.77769">
        <ele>610.09</ele>
        <time>2013-08-01T08:36:11Z</time>
      </trkpt>
      <trkpt lat="46.60634" lon="5.77806">
        <ele>610.57</ele>
        <time>2013-08-01T08:36:24Z</time>
      </trkpt>
      <trkpt lat="46.60636" lon="5.77836">
        <ele>607.21</ele>
        <time>2013-08-01T08:36:31Z</time>
      </trkpt>
      <trkpt lat="46.60637" lon="5.77841">
        <ele>607.21</ele>
        <time>2013-08-01T08:36:32Z</time>
      </trkpt>
      <trkpt lat="46.60637" lon="5.77855">
        <ele>605.29</ele>
        <time>2013-08-01T08:36:35Z</time>
      </trkpt>
      <trkpt lat="46.6061" lon="5.77868">
        <ele>606.25</ele>
        <time>2013-08-01T08:36:47Z</time>
      </trkpt>
      <trkpt lat="46.60581" lon="5.77897">
        <ele>607.69</ele>
        <time>2013-08-01T08:37:00Z</time>
      </trkpt>
      <trkpt lat="46.60553" lon="5.7794">
        <ele>608.17</ele>
        <time>2013-08-01T08:37:14Z</time>
      </trkpt>
      <trkpt lat="46.60525" lon="5.77979">
        <ele>609.13</ele>
        <time>2013-08-01T08:37:28Z</time>
      </trkpt>
      <trkpt lat="46.60502" lon="5.78014">
        <ele>611.06</ele>
        <time>2013-08-01T08:37:41Z</time>
      </trkpt>
      <trkpt lat="46.60473" lon="5.78046">
        <ele>612.98</ele>
        <time>2013-08-01T08:37:54Z</time>
      </trkpt>
      <trkpt lat="46.60443" lon="5.78077">
        <ele>614.9</ele>
        <time>2013-08-01T08:38:07Z</time>
      </trkpt>
      <trkpt lat="46.60405" lon="5.78094">
        <ele>617.78</ele>
        <time>2013-08-01T08:38:22Z</time>
      </trkpt>
      <trkpt lat="46.60373" lon="5.78093">
        <ele>618.75</ele>
        <time>2013-08-01T08:38:34Z</time>
      </trkpt>
      <trkpt lat="46.60353" lon="5.78096">
        <ele>617.78</ele>
        <time>2013-08-01T08:38:39Z</time>
      </trkpt>
      <trkpt lat="46.60343" lon="5.78101">
        <ele>616.34</ele>
        <time>2013-08-01T08:38:41Z</time>
      </trkpt>
      <trkpt lat="46.60335" lon="5.78108">
        <ele>615.38</ele>
        <time>2013-08-01T08:38:43Z</time>
      </trkpt>
      <trkpt lat="46.60329" lon="5.78119">
        <ele>614.42</ele>
        <time>2013-08-01T08:38:45Z</time>
      </trkpt>
      <trkpt lat="46.60328" lon="5.78147">
        <ele>612.5</ele>
        <time>2013-08-01T08:38:48Z</time>
      </trkpt>
      <trkpt lat="46.60324" lon="5.78181">
        <ele>610.09</ele>
        <time>2013-08-01T08:38:51Z</time>
      </trkpt>
      <trkpt lat="46.6031" lon="5.78248">
        <ele>607.69</ele>
        <time>2013-08-01T08:38:56Z</time>
      </trkpt>
      <trkpt lat="46.60274" lon="5.78394">
        <ele>606.73</ele>
        <time>2013-08-01T08:39:10Z</time>
      </trkpt>
      <trkpt lat="46.60261" lon="5.78452">
        <ele>608.17</ele>
        <time>2013-08-01T08:39:21Z</time>
      </trkpt>
      <trkpt lat="46.60266" lon="5.78515">
        <ele>608.17</ele>
        <time>2013-08-01T08:39:34Z</time>
      </trkpt>
      <trkpt lat="46.60265" lon="5.78618">
        <ele>606.73</ele>
        <time>2013-08-01T08:39:48Z</time>
      </trkpt>
      <trkpt lat="46.60267" lon="5.78718">
        <ele>607.69</ele>
        <time>2013-08-01T08:40:02Z</time>
      </trkpt>
      <trkpt lat="46.60267" lon="5.78797">
        <ele>609.61</ele>
        <time>2013-08-01T08:40:17Z</time>
      </trkpt>
      <trkpt lat="46.60267" lon="5.78868">
        <ele>611.54</ele>
        <time>2013-08-01T08:40:32Z</time>
      </trkpt>
      <trkpt lat="46.60268" lon="5.78942">
        <ele>611.54</ele>
        <time>2013-08-01T08:40:47Z</time>
      </trkpt>
      <trkpt lat="46.60269" lon="5.79037">
        <ele>612.5</ele>
        <time>2013-08-01T08:41:05Z</time>
      </trkpt>
      <trkpt lat="46.60267" lon="5.79087">
        <ele>612.98</ele>
        <time>2013-08-01T08:41:18Z</time>
      </trkpt>
      <trkpt lat="46.60266" lon="5.79086">
        <ele>612.98</ele>
        <time>2013-08-01T08:41:30Z</time>
      </trkpt>
      <trkpt lat="46.60267" lon="5.79086">
        <ele>612.98</ele>
        <time>2013-08-01T08:42:00Z</time>
      </trkpt>
      <trkpt lat="46.60265" lon="5.79085">
        <ele>612.98</ele>
        <time>2013-08-01T08:42:44Z</time>
      </trkpt>
      <trkpt lat="46.60268" lon="5.79085">
        <ele>612.98</ele>
        <time>2013-08-01T08:43:19Z</time>
      </trkpt>
      <trkpt lat="46.60267" lon="5.79085">
        <ele>612.5</ele>
        <time>2013-08-01T08:43:59Z</time>
      </trkpt>
      <trkpt lat="46.60267" lon="5.79086">
        <ele>612.98</ele>
        <time>2013-08-01T08:44:37Z</time>
      </trkpt>
      <trkpt lat="46.60267" lon="5.79086">
        <ele>612.02</ele>
        <time>2013-08-01T08:45:18Z</time>
      </trkpt>
      <trkpt lat="46.60266" lon="5.79088">
        <ele>612.5</ele>
        <time>2013-08-01T08:45:48Z</time>
      </trkpt>
      <trkpt lat="46.60266" lon="5.79087">
        <ele>612.5</ele>
        <time>2013-08-01T08:46:18Z</time>
      </trkpt>
      <trkpt lat="46.60266" lon="5.79088">
        <ele>612.02</ele>
        <time>2013-08-01T08:47:02Z</time>
      </trkpt>
      <trkpt lat="46.60263" lon="5.79083">
        <ele>611.54</ele>
        <time>2013-08-01T08:47:37Z</time>
      </trkpt>
      <trkpt lat="46.60266" lon="5.79089">
        <ele>611.54</ele>
        <time>2013-08-01T08:48:06Z</time>
      </trkpt>
      <trkpt lat="46.60296" lon="5.79106">
        <ele>611.06</ele>
        <time>2013-08-01T08:48:18Z</time>
      </trkpt>
      <trkpt lat="46.60333" lon="5.79139">
        <ele>609.61</ele>
        <time>2013-08-01T08:48:27Z</time>
      </trkpt>
      <trkpt lat="46.60341" lon="5.79151">
        <ele>608.65</ele>
        <time>2013-08-01T08:48:29Z</time>
      </trkpt>
      <trkpt lat="46.60394" lon="5.79286">
        <ele>606.25</ele>
        <time>2013-08-01T08:48:45Z</time>
      </trkpt>
      <trkpt lat="46.60418" lon="5.79348">
        <ele>606.73</ele>
        <time>2013-08-01T08:48:54Z</time>
      </trkpt>
      <trkpt lat="46.60427" lon="5.79378">
        <ele>607.21</ele>
        <time>2013-08-01T08:48:59Z</time>
      </trkpt>
      <trkpt lat="46.60439" lon="5.79406">
        <ele>607.69</ele>
        <time>2013-08-01T08:49:05Z</time>
      </trkpt>
      <trkpt lat="46.60444" lon="5.79422">
        <ele>607.69</ele>
        <time>2013-08-01T08:49:08Z</time>
      </trkpt>
      <trkpt lat="46.60479" lon="5.79512">
        <ele>608.17</ele>
        <time>2013-08-01T08:49:25Z</time>
      </trkpt>
      <trkpt lat="46.60503" lon="5.79595">
        <ele>609.61</ele>
        <time>2013-08-01T08:49:42Z</time>
      </trkpt>
      <trkpt lat="46.60524" lon="5.79661">
        <ele>611.06</ele>
        <time>2013-08-01T08:49:56Z</time>
      </trkpt>
      <trkpt lat="46.60551" lon="5.79738">
        <ele>614.42</ele>
        <time>2013-08-01T08:50:14Z</time>
      </trkpt>
      <trkpt lat="46.60575" lon="5.79815">
        <ele>616.82</ele>
        <time>2013-08-01T08:50:32Z</time>
      </trkpt>
      <trkpt lat="46.60595" lon="5.79873">
        <ele>618.26</ele>
        <time>2013-08-01T08:50:45Z</time>
      </trkpt>
      <trkpt lat="46.6062" lon="5.79931">
        <ele>621.15</ele>
        <time>2013-08-01T08:50:59Z</time>
      </trkpt>
      <trkpt lat="46.60643" lon="5.79992">
        <ele>621.63</ele>
        <time>2013-08-01T08:51:13Z</time>
      </trkpt>
      <trkpt lat="46.6066" lon="5.80039">
        <ele>624.03</ele>
        <time>2013-08-01T08:51:25Z</time>
      </trkpt>
      <trkpt lat="46.60686" lon="5.80093">
        <ele>625.96</ele>
        <time>2013-08-01T08:51:40Z</time>
      </trkpt>
      <trkpt lat="46.60716" lon="5.80137">
        <ele>626.92</ele>
        <time>2013-08-01T08:51:54Z</time>
      </trkpt>
      <trkpt lat="46.60733" lon="5.80213">
        <ele>628.84</ele>
        <time>2013-08-01T08:52:13Z</time>
      </trkpt>
      <trkpt lat="46.60748" lon="5.8024">
        <ele>628.84</ele>
        <time>2013-08-01T08:52:19Z</time>
      </trkpt>
      <trkpt lat="46.60781" lon="5.80308">
        <ele>630.76</ele>
        <time>2013-08-01T08:52:33Z</time>
      </trkpt>
      <trkpt lat="46.60793" lon="5.80324">
        <ele>630.76</ele>
        <time>2013-08-01T08:52:37Z</time>
      </trkpt>
      <trkpt lat="46.60847" lon="5.80367">
        <ele>634.61</ele>
        <time>2013-08-01T08:52:54Z</time>
      </trkpt>
      <trkpt lat="46.60893" lon="5.80365">
        <ele>635.57</ele>
        <time>2013-08-01T08:53:08Z</time>
      </trkpt>
      <trkpt lat="46.60942" lon="5.8042">
        <ele>637.01</ele>
        <time>2013-08-01T08:53:25Z</time>
      </trkpt>
      <trkpt lat="46.60987" lon="5.805">
        <ele>637.01</ele>
        <time>2013-08-01T08:53:43Z</time>
      </trkpt>
      <trkpt lat="46.61045" lon="5.80576">
        <ele>636.05</ele>
        <time>2013-08-01T08:53:57Z</time>
      </trkpt>
      <trkpt lat="46.61041" lon="5.80637">
        <ele>636.05</ele>
        <time>2013-08-01T08:54:04Z</time>
      </trkpt>
      <trkpt lat="46.61052" lon="5.80666">
        <ele>636.53</ele>
        <time>2013-08-01T08:54:09Z</time>
      </trkpt>
      <trkpt lat="46.61068" lon="5.80688">
        <ele>637.01</ele>
        <time>2013-08-01T08:54:14Z</time>
      </trkpt>
      <trkpt lat="46.61081" lon="5.80705">
        <ele>637.49</ele>
        <time>2013-08-01T08:54:18Z</time>
      </trkpt>
      <trkpt lat="46.61142" lon="5.80731">
        <ele>637.97</ele>
        <time>2013-08-01T08:54:33Z</time>
      </trkpt>
      <trkpt lat="46.61172" lon="5.80767">
        <ele>638.45</ele>
        <time>2013-08-01T08:54:44Z</time>
      </trkpt>
      <trkpt lat="46.61166" lon="5.80779">
        <ele>638.45</ele>
        <time>2013-08-01T08:54:48Z</time>
      </trkpt>
      <trkpt lat="46.61145" lon="5.80797">
        <ele>639.41</ele>
        <time>2013-08-01T08:54:58Z</time>
      </trkpt>
      <trkpt lat="46.6116" lon="5.80803">
        <ele>639.89</ele>
        <time>2013-08-01T08:55:07Z</time>
      </trkpt>
      <trkpt lat="46.61161" lon="5.80798">
        <ele>639.41</ele>
        <time>2013-08-01T08:55:08Z</time>
      </trkpt>
      <trkpt lat="46.61164" lon="5.80785">
        <ele>638.93</ele>
        <time>2013-08-01T08:55:10Z</time>
      </trkpt>
      <trkpt lat="46.61192" lon="5.80765">
        <ele>638.45</ele>
        <time>2013-08-01T08:55:18Z</time>
      </trkpt>
      <trkpt lat="46.61181" lon="5.80757">
        <ele>638.45</ele>
        <time>2013-08-01T08:55:25Z</time>
      </trkpt>
      <trkpt lat="46.6117" lon="5.8076">
        <ele>638.93</ele>
        <time>2013-08-01T08:55:33Z</time>
      </trkpt>
      <trkpt lat="46.61178" lon="5.80766">
        <ele>638.93</ele>
        <time>2013-08-01T08:55:36Z</time>
      </trkpt>
      <trkpt lat="46.61214" lon="5.80779">
        <ele>638.45</ele>
        <time>2013-08-01T08:55:48Z</time>
      </trkpt>
      <trkpt lat="46.61246" lon="5.80798">
        <ele>639.41</ele>
        <time>2013-08-01T08:55:58Z</time>
      </trkpt>
      <trkpt lat="46.61284" lon="5.80843">
        <ele>641.82</ele>
        <time>2013-08-01T08:56:16Z</time>
      </trkpt>
      <trkpt lat="46.61291" lon="5.80861">
        <ele>642.78</ele>
        <time>2013-08-01T08:56:24Z</time>
      </trkpt>
      <trkpt lat="46.61296" lon="5.80855">
        <ele>643.26</ele>
        <time>2013-08-01T08:56:33Z</time>
      </trkpt>
      <trkpt lat="46.61299" lon="5.80853">
        <ele>643.26</ele>
        <time>2013-08-01T08:57:10Z</time>
      </trkpt>
      <trkpt lat="46.61299" lon="5.8085">
        <ele>642.78</ele>
        <time>2013-08-01T08:57:55Z</time>
      </trkpt>
      <trkpt lat="46.61298" lon="5.8085">
        <ele>643.26</ele>
        <time>2013-08-01T08:58:18Z</time>
      </trkpt>
      <trkpt lat="46.61297" lon="5.80852">
        <ele>643.26</ele>
        <time>2013-08-01T08:58:46Z</time>
      </trkpt>
      <trkpt lat="46.61296" lon="5.80855">
        <ele>642.78</ele>
        <time>2013-08-01T08:59:31Z</time>
      </trkpt>
      <trkpt lat="46.61316" lon="5.80859">
        <ele>642.3</ele>
        <time>2013-08-01T08:59:41Z</time>
      </trkpt>
      <trkpt lat="46.61357" lon="5.80872">
        <ele>643.26</ele>
        <time>2013-08-01T08:59:55Z</time>
      </trkpt>
      <trkpt lat="46.61402" lon="5.80882">
        <ele>645.66</ele>
        <time>2013-08-01T09:00:10Z</time>
      </trkpt>
      <trkpt lat="46.61436" lon="5.809">
        <ele>647.1</ele>
        <time>2013-08-01T09:00:23Z</time>
      </trkpt>
      <trkpt lat="46.61492" lon="5.80939">
        <ele>649.03</ele>
        <time>2013-08-01T09:00:41Z</time>
      </trkpt>
      <trkpt lat="46.61558" lon="5.80974">
        <ele>650.47</ele>
        <time>2013-08-01T09:01:01Z</time>
      </trkpt>
      <trkpt lat="46.61609" lon="5.80955">
        <ele>651.91</ele>
        <time>2013-08-01T09:01:16Z</time>
      </trkpt>
      <trkpt lat="46.61675" lon="5.80951">
        <ele>652.39</ele>
        <time>2013-08-01T09:01:34Z</time>
      </trkpt>
      <trkpt lat="46.61718" lon="5.8096">
        <ele>654.31</ele>
        <time>2013-08-01T09:01:48Z</time>
      </trkpt>
      <trkpt lat="46.61757" lon="5.80988">
        <ele>657.2</ele>
        <time>2013-08-01T09:02:06Z</time>
      </trkpt>
      <trkpt lat="46.61793" lon="5.81006">
        <ele>659.6</ele>
        <time>2013-08-01T09:02:21Z</time>
      </trkpt>
      <trkpt lat="46.61854" lon="5.81029">
        <ele>659.12</ele>
        <time>2013-08-01T09:02:39Z</time>
      </trkpt>
      <trkpt lat="46.61858" lon="5.8103">
        <ele>659.12</ele>
        <time>2013-08-01T09:02:40Z</time>
      </trkpt>
      <trkpt lat="46.61897" lon="5.81016">
        <ele>658.64</ele>
        <time>2013-08-01T09:02:52Z</time>
      </trkpt>
      <trkpt lat="46.61899" lon="5.81019">
        <ele>658.16</ele>
        <time>2013-08-01T09:03:06Z</time>
      </trkpt>
      <trkpt lat="46.619" lon="5.81019">
        <ele>658.16</ele>
        <time>2013-08-01T09:03:42Z</time>
      </trkpt>
      <trkpt lat="46.619" lon="5.81019">
        <ele>658.16</ele>
        <time>2013-08-01T09:04:16Z</time>
      </trkpt>
      <trkpt lat="46.61898" lon="5.8102">
        <ele>658.64</ele>
        <time>2013-08-01T09:04:47Z</time>
      </trkpt>
      <trkpt lat="46.61899" lon="5.81009">
        <ele>659.12</ele>
        <time>2013-08-01T09:04:52Z</time>
      </trkpt>
      <trkpt lat="46.61911" lon="5.80984">
        <ele>658.64</ele>
        <time>2013-08-01T09:04:58Z</time>
      </trkpt>
      <trkpt lat="46.61935" lon="5.80923">
        <ele>655.28</ele>
        <time>2013-08-01T09:05:07Z</time>
      </trkpt>
      <trkpt lat="46.61947" lon="5.80876">
        <ele>653.83</ele>
        <time>2013-08-01T09:05:12Z</time>
      </trkpt>
      <trkpt lat="46.61975" lon="5.8084">
        <ele>651.91</ele>
        <time>2013-08-01T09:05:18Z</time>
      </trkpt>
      <trkpt lat="46.62021" lon="5.80813">
        <ele>649.03</ele>
        <time>2013-08-01T09:05:25Z</time>
      </trkpt>
      <trkpt lat="46.62049" lon="5.80788">
        <ele>647.1</ele>
        <time>2013-08-01T09:05:29Z</time>
      </trkpt>
      <trkpt lat="46.621" lon="5.80745">
        <ele>645.18</ele>
        <time>2013-08-01T09:05:36Z</time>
      </trkpt>
      <trkpt lat="46.62115" lon="5.80731">
        <ele>644.22</ele>
        <time>2013-08-01T09:05:38Z</time>
      </trkpt>
      <trkpt lat="46.62166" lon="5.80714">
        <ele>641.34</ele>
        <time>2013-08-01T09:05:44Z</time>
      </trkpt>
      <trkpt lat="46.62183" lon="5.80716">
        <ele>640.86</ele>
        <time>2013-08-01T09:05:46Z</time>
      </trkpt>
      <trkpt lat="46.62222" lon="5.8072">
        <ele>639.89</ele>
        <time>2013-08-01T09:05:51Z</time>
      </trkpt>
      <trkpt lat="46.62245" lon="5.80716">
        <ele>639.89</ele>
        <time>2013-08-01T09:05:54Z</time>
      </trkpt>
      <trkpt lat="46.62283" lon="5.80698">
        <ele>640.38</ele>
        <time>2013-08-01T09:06:01Z</time>
      </trkpt>
      <trkpt lat="46.62287" lon="5.80695">
        <ele>640.38</ele>
        <time>2013-08-01T09:06:02Z</time>
      </trkpt>
      <trkpt lat="46.62334" lon="5.80682">
        <ele>639.89</ele>
        <time>2013-08-01T09:06:14Z</time>
      </trkpt>
      <trkpt lat="46.62387" lon="5.80691">
        <ele>638.45</ele>
        <time>2013-08-01T09:06:25Z</time>
      </trkpt>
      <trkpt lat="46.62425" lon="5.80689">
        <ele>638.45</ele>
        <time>2013-08-01T09:06:31Z</time>
      </trkpt>
      <trkpt lat="46.62435" lon="5.80691">
        <ele>638.45</ele>
        <time>2013-08-01T09:06:33Z</time>
      </trkpt>
      <trkpt lat="46.62453" lon="5.80703">
        <ele>638.93</ele>
        <time>2013-08-01T09:06:37Z</time>
      </trkpt>
      <trkpt lat="46.6247" lon="5.80717">
        <ele>638.93</ele>
        <time>2013-08-01T09:06:41Z</time>
      </trkpt>
      <trkpt lat="46.62531" lon="5.80735">
        <ele>637.97</ele>
        <time>2013-08-01T09:06:55Z</time>
      </trkpt>
      <trkpt lat="46.62592" lon="5.80684">
        <ele>635.57</ele>
        <time>2013-08-01T09:07:05Z</time>
      </trkpt>
      <trkpt lat="46.62605" lon="5.80674">
        <ele>634.61</ele>
        <time>2013-08-01T09:07:07Z</time>
      </trkpt>
      <trkpt lat="46.62635" lon="5.80669">
        <ele>634.61</ele>
        <time>2013-08-01T09:07:12Z</time>
      </trkpt>
      <trkpt lat="46.62645" lon="5.8067">
        <ele>634.13</ele>
        <time>2013-08-01T09:07:14Z</time>
      </trkpt>
      <trkpt lat="46.62667" lon="5.80666">
        <ele>634.61</ele>
        <time>2013-08-01T09:07:18Z</time>
      </trkpt>
      <trkpt lat="46.62734" lon="5.80629">
        <ele>635.57</ele>
        <time>2013-08-01T09:07:32Z</time>
      </trkpt>
      <trkpt lat="46.62758" lon="5.80623">
        <ele>635.09</ele>
        <time>2013-08-01T09:07:38Z</time>
      </trkpt>
      <trkpt lat="46.62779" lon="5.80604">
        <ele>633.65</ele>
        <time>2013-08-01T09:07:42Z</time>
      </trkpt>
      <trkpt lat="46.62847" lon="5.80568">
        <ele>631.72</ele>
        <time>2013-08-01T09:07:54Z</time>
      </trkpt>
      <trkpt lat="46.62855" lon="5.80564">
        <ele>631.24</ele>
        <time>2013-08-01T09:07:55Z</time>
      </trkpt>
      <trkpt lat="46.62894" lon="5.80545">
        <ele>630.76</ele>
        <time>2013-08-01T09:08:01Z</time>
      </trkpt>
      <trkpt lat="46.62918" lon="5.80526">
        <ele>631.24</ele>
        <time>2013-08-01T09:08:05Z</time>
      </trkpt>
      <trkpt lat="46.6294" lon="5.80506">
        <ele>631.72</ele>
        <time>2013-08-01T09:08:10Z</time>
      </trkpt>
      <trkpt lat="46.62971" lon="5.80491">
        <ele>630.28</ele>
        <time>2013-08-01T09:08:16Z</time>
      </trkpt>
      <trkpt lat="46.62994" lon="5.80487">
        <ele>629.8</ele>
        <time>2013-08-01T09:08:20Z</time>
      </trkpt>
      <trkpt lat="46.63013" lon="5.80482">
        <ele>627.88</ele>
        <time>2013-08-01T09:08:23Z</time>
      </trkpt>
      <trkpt lat="46.63051" lon="5.80453">
        <ele>626.92</ele>
        <time>2013-08-01T09:08:28Z</time>
      </trkpt>
      <trkpt lat="46.63065" lon="5.80438">
        <ele>625.47</ele>
        <time>2013-08-01T09:08:30Z</time>
      </trkpt>
      <trkpt lat="46.63143" lon="5.80361">
        <ele>622.11</ele>
        <time>2013-08-01T09:08:42Z</time>
      </trkpt>
      <trkpt lat="46.63203" lon="5.80292">
        <ele>620.67</ele>
        <time>2013-08-01T09:08:52Z</time>
      </trkpt>
      <trkpt lat="46.63212" lon="5.80277">
        <ele>620.67</ele>
        <time>2013-08-01T09:08:54Z</time>
      </trkpt>
      <trkpt lat="46.63233" lon="5.80252">
        <ele>619.23</ele>
        <time>2013-08-01T09:08:58Z</time>
      </trkpt>
      <trkpt lat="46.63244" lon="5.80242">
        <ele>619.23</ele>
        <time>2013-08-01T09:09:00Z</time>
      </trkpt>
      <trkpt lat="46.63266" lon="5.80185">
        <ele>617.3</ele>
        <time>2013-08-01T09:09:07Z</time>
      </trkpt>
      <trkpt lat="46.63282" lon="5.80119">
        <ele>616.34</ele>
        <time>2013-08-01T09:09:15Z</time>
      </trkpt>
      <trkpt lat="46.63294" lon="5.80106">
        <ele>615.38</ele>
        <time>2013-08-01T09:09:17Z</time>
      </trkpt>
      <trkpt lat="46.63321" lon="5.80053">
        <ele>614.42</ele>
        <time>2013-08-01T09:09:23Z</time>
      </trkpt>
      <trkpt lat="46.63327" lon="5.80024">
        <ele>614.9</ele>
        <time>2013-08-01T09:09:26Z</time>
      </trkpt>
      <trkpt lat="46.63336" lon="5.79973">
        <ele>614.42</ele>
        <time>2013-08-01T09:09:32Z</time>
      </trkpt>
      <trkpt lat="46.63347" lon="5.79932">
        <ele>616.34</ele>
        <time>2013-08-01T09:09:39Z</time>
      </trkpt>
      <trkpt lat="46.63349" lon="5.79893">
        <ele>618.26</ele>
        <time>2013-08-01T09:09:46Z</time>
      </trkpt>
      <trkpt lat="46.63332" lon="5.79859">
        <ele>617.3</ele>
        <time>2013-08-01T09:09:54Z</time>
      </trkpt>
      <trkpt lat="46.63334" lon="5.79833">
        <ele>615.86</ele>
        <time>2013-08-01T09:09:58Z</time>
      </trkpt>
      <trkpt lat="46.63359" lon="5.79799">
        <ele>614.9</ele>
        <time>2013-08-01T09:10:05Z</time>
      </trkpt>
      <trkpt lat="46.63378" lon="5.79783">
        <ele>613.94</ele>
        <time>2013-08-01T09:10:09Z</time>
      </trkpt>
      <trkpt lat="46.63406" lon="5.79763">
        <ele>612.02</ele>
        <time>2013-08-01T09:10:16Z</time>
      </trkpt>
      <trkpt lat="46.6343" lon="5.79717">
        <ele>610.09</ele>
        <time>2013-08-01T09:10:22Z</time>
      </trkpt>
      <trkpt lat="46.63434" lon="5.79675">
        <ele>608.17</ele>
        <time>2013-08-01T09:10:25Z</time>
      </trkpt>
      <trkpt lat="46.6345" lon="5.79605">
        <ele>606.73</ele>
        <time>2013-08-01T09:10:31Z</time>
      </trkpt>
      <trkpt lat="46.63473" lon="5.79568">
        <ele>605.77</ele>
        <time>2013-08-01T09:10:35Z</time>
      </trkpt>
      <trkpt lat="46.63505" lon="5.79538">
        <ele>604.81</ele>
        <time>2013-08-01T09:10:40Z</time>
      </trkpt>
      <trkpt lat="46.63531" lon="5.79522">
        <ele>604.81</ele>
        <time>2013-08-01T09:10:44Z</time>
      </trkpt>
      <trkpt lat="46.63562" lon="5.79488">
        <ele>605.29</ele>
        <time>2013-08-01T09:10:50Z</time>
      </trkpt>
      <trkpt lat="46.63584" lon="5.79436">
        <ele>604.81</ele>
        <time>2013-08-01T09:10:58Z</time>
      </trkpt>
      <trkpt lat="46.6359" lon="5.79417">
        <ele>603.36</ele>
        <time>2013-08-01T09:11:00Z</time>
      </trkpt>
      <trkpt lat="46.63598" lon="5.7938">
        <ele>602.88</ele>
        <time>2013-08-01T09:11:04Z</time>
      </trkpt>
      <trkpt lat="46.6363" lon="5.79331">
        <ele>600.96</ele>
        <time>2013-08-01T09:11:12Z</time>
      </trkpt>
      <trkpt lat="46.63632" lon="5.7933">
        <ele>601.44</ele>
        <time>2013-08-01T09:11:13Z</time>
      </trkpt>
      <trkpt lat="46.63641" lon="5.7931">
        <ele>601.44</ele>
        <time>2013-08-01T09:11:20Z</time>
      </trkpt>
      <trkpt lat="46.63649" lon="5.79262">
        <ele>601.92</ele>
        <time>2013-08-01T09:11:34Z</time>
      </trkpt>
      <trkpt lat="46.63652" lon="5.79251">
        <ele>601.92</ele>
        <time>2013-08-01T09:11:37Z</time>
      </trkpt>
      <trkpt lat="46.63659" lon="5.79237">
        <ele>600.48</ele>
        <time>2013-08-01T09:11:42Z</time>
      </trkpt>
      <trkpt lat="46.6368" lon="5.79203">
        <ele>599.04</ele>
        <time>2013-08-01T09:11:52Z</time>
      </trkpt>
      <trkpt lat="46.63692" lon="5.79187">
        <ele>599.04</ele>
        <time>2013-08-01T09:11:57Z</time>
      </trkpt>
      <trkpt lat="46.63703" lon="5.79165">
        <ele>597.6</ele>
        <time>2013-08-01T09:12:02Z</time>
      </trkpt>
      <trkpt lat="46.63706" lon="5.7916">
        <ele>598.56</ele>
        <time>2013-08-01T09:12:03Z</time>
      </trkpt>
      <trkpt lat="46.63728" lon="5.79131">
        <ele>596.15</ele>
        <time>2013-08-01T09:12:09Z</time>
      </trkpt>
      <trkpt lat="46.63764" lon="5.79093">
        <ele>592.31</ele>
        <time>2013-08-01T09:12:18Z</time>
      </trkpt>
      <trkpt lat="46.6379" lon="5.79057">
        <ele>588.46</ele>
        <time>2013-08-01T09:12:26Z</time>
      </trkpt>
      <trkpt lat="46.63796" lon="5.79048">
        <ele>587.98</ele>
        <time>2013-08-01T09:12:28Z</time>
      </trkpt>
      <trkpt lat="46.63811" lon="5.79014">
        <ele>584.62</ele>
        <time>2013-08-01T09:12:33Z</time>
      </trkpt>
      <trkpt lat="46.63828" lon="5.78978">
        <ele>581.73</ele>
        <time>2013-08-01T09:12:39Z</time>
      </trkpt>
      <trkpt lat="46.6383" lon="5.78974">
        <ele>581.25</ele>
        <time>2013-08-01T09:12:40Z</time>
      </trkpt>
      <trkpt lat="46.63839" lon="5.78954">
        <ele>578.85</ele>
        <time>2013-08-01T09:12:45Z</time>
      </trkpt>
      <trkpt lat="46.63852" lon="5.78917">
        <ele>575.49</ele>
        <time>2013-08-01T09:12:54Z</time>
      </trkpt>
      <trkpt lat="46.63888" lon="5.78891">
        <ele>572.6</ele>
        <time>2013-08-01T09:13:03Z</time>
      </trkpt>
      <trkpt lat="46.63964" lon="5.78848">
        <ele>571.16</ele>
        <time>2013-08-01T09:13:11Z</time>
      </trkpt>
      <trkpt lat="46.63968" lon="5.78846">
        <ele>570.68</ele>
        <time>2013-08-01T09:13:13Z</time>
      </trkpt>
      <trkpt lat="46.63987" lon="5.78845">
        <ele>568.76</ele>
        <time>2013-08-01T09:13:18Z</time>
      </trkpt>
      <trkpt lat="46.64002" lon="5.78844">
        <ele>566.35</ele>
        <time>2013-08-01T09:13:22Z</time>
      </trkpt>
      <trkpt lat="46.64032" lon="5.78836">
        <ele>563.47</ele>
        <time>2013-08-01T09:13:33Z</time>
      </trkpt>
      <trkpt lat="46.64038" lon="5.78836">
        <ele>562.51</ele>
        <time>2013-08-01T09:13:36Z</time>
      </trkpt>
      <trkpt lat="46.64052" lon="5.78849">
        <ele>560.11</ele>
        <time>2013-08-01T09:13:40Z</time>
      </trkpt>
      <trkpt lat="46.64063" lon="5.78871">
        <ele>556.26</ele>
        <time>2013-08-01T09:13:45Z</time>
      </trkpt>
      <trkpt lat="46.64075" lon="5.78898">
        <ele>554.82</ele>
        <time>2013-08-01T09:13:50Z</time>
      </trkpt>
      <trkpt lat="46.64089" lon="5.78962">
        <ele>554.34</ele>
        <time>2013-08-01T09:14:02Z</time>
      </trkpt>
      <trkpt lat="46.64101" lon="5.79">
        <ele>555.3</ele>
        <time>2013-08-01T09:14:12Z</time>
      </trkpt>
      <trkpt lat="46.64114" lon="5.79011">
        <ele>553.38</ele>
        <time>2013-08-01T09:14:24Z</time>
      </trkpt>
      <trkpt lat="46.64116" lon="5.79012">
        <ele>553.38</ele>
        <time>2013-08-01T09:14:33Z</time>
      </trkpt>
      <trkpt lat="46.64123" lon="5.79038">
        <ele>554.82</ele>
        <time>2013-08-01T09:14:45Z</time>
      </trkpt>
      <trkpt lat="46.64123" lon="5.79038">
        <ele>555.78</ele>
        <time>2013-08-01T09:14:57Z</time>
      </trkpt>
      <trkpt lat="46.64122" lon="5.79035">
        <ele>555.3</ele>
        <time>2013-08-01T09:15:06Z</time>
      </trkpt>
      <trkpt lat="46.64127" lon="5.79007">
        <ele>552.41</ele>
        <time>2013-08-01T09:15:14Z</time>
      </trkpt>
      <trkpt lat="46.64133" lon="5.79001">
        <ele>551.45</ele>
        <time>2013-08-01T09:15:16Z</time>
      </trkpt>
      <trkpt lat="46.64176" lon="5.78947">
        <ele>547.13</ele>
        <time>2013-08-01T09:15:27Z</time>
      </trkpt>
      <trkpt lat="46.64185" lon="5.78935">
        <ele>547.61</ele>
        <time>2013-08-01T09:15:29Z</time>
      </trkpt>
      <trkpt lat="46.64218" lon="5.78904">
        <ele>545.2</ele>
        <time>2013-08-01T09:15:37Z</time>
      </trkpt>
      <trkpt lat="46.6425" lon="5.78772">
        <ele>542.32</ele>
        <time>2013-08-01T09:15:52Z</time>
      </trkpt>
      <trkpt lat="46.6428" lon="5.78676">
        <ele>540.4</ele>
        <time>2013-08-01T09:16:02Z</time>
      </trkpt>
      <trkpt lat="46.64288" lon="5.78661">
        <ele>540.4</ele>
        <time>2013-08-01T09:16:04Z</time>
      </trkpt>
      <trkpt lat="46.64309" lon="5.7864">
        <ele>539.92</ele>
        <time>2013-08-01T09:16:08Z</time>
      </trkpt>
      <trkpt lat="46.64362" lon="5.78606">
        <ele>541.36</ele>
        <time>2013-08-01T09:16:20Z</time>
      </trkpt>
      <trkpt lat="46.64426" lon="5.78563">
        <ele>542.8</ele>
        <time>2013-08-01T09:16:38Z</time>
      </trkpt>
      <trkpt lat="46.64476" lon="5.7853">
        <ele>544.24</ele>
        <time>2013-08-01T09:16:53Z</time>
      </trkpt>
      <trkpt lat="46.64495" lon="5.78516">
        <ele>543.76</ele>
        <time>2013-08-01T09:16:58Z</time>
      </trkpt>
      <trkpt lat="46.64517" lon="5.78484">
        <ele>542.32</ele>
        <time>2013-08-01T09:17:05Z</time>
      </trkpt>
      <trkpt lat="46.64539" lon="5.78434">
        <ele>540.4</ele>
        <time>2013-08-01T09:17:12Z</time>
      </trkpt>
      <trkpt lat="46.64549" lon="5.78407">
        <ele>539.44</ele>
        <time>2013-08-01T09:17:15Z</time>
      </trkpt>
      <trkpt lat="46.64571" lon="5.78307">
        <ele>535.59</ele>
        <time>2013-08-01T09:17:24Z</time>
      </trkpt>
      <trkpt lat="46.64573" lon="5.78295">
        <ele>535.59</ele>
        <time>2013-08-01T09:17:25Z</time>
      </trkpt>
      <trkpt lat="46.64609" lon="5.782">
        <ele>532.23</ele>
        <time>2013-08-01T09:17:35Z</time>
      </trkpt>
      <trkpt lat="46.64664" lon="5.78125">
        <ele>529.34</ele>
        <time>2013-08-01T09:17:45Z</time>
      </trkpt>
      <trkpt lat="46.6467" lon="5.78118">
        <ele>530.3</ele>
        <time>2013-08-01T09:17:46Z</time>
      </trkpt>
      <trkpt lat="46.64678" lon="5.78109">
        <ele>529.34</ele>
        <time>2013-08-01T09:17:47Z</time>
      </trkpt>
      <trkpt lat="46.64694" lon="5.78061">
        <ele>528.38</ele>
        <time>2013-08-01T09:17:52Z</time>
      </trkpt>
      <trkpt lat="46.647" lon="5.78015">
        <ele>526.94</ele>
        <time>2013-08-01T09:17:56Z</time>
      </trkpt>
      <trkpt lat="46.6471" lon="5.7798">
        <ele>525.5</ele>
        <time>2013-08-01T09:17:59Z</time>
      </trkpt>
      <trkpt lat="46.64734" lon="5.77885">
        <ele>522.61</ele>
        <time>2013-08-01T09:18:07Z</time>
      </trkpt>
      <trkpt lat="46.64749" lon="5.77762">
        <ele>520.21</ele>
        <time>2013-08-01T09:18:18Z</time>
      </trkpt>
      <trkpt lat="46.64749" lon="5.77725">
        <ele>518.77</ele>
        <time>2013-08-01T09:18:21Z</time>
      </trkpt>
      <trkpt lat="46.64755" lon="5.77622">
        <ele>518.29</ele>
        <time>2013-08-01T09:18:32Z</time>
      </trkpt>
      <trkpt lat="46.64756" lon="5.77601">
        <ele>519.73</ele>
        <time>2013-08-01T09:18:36Z</time>
      </trkpt>
      <trkpt lat="46.64749" lon="5.77534">
        <ele>521.17</ele>
        <time>2013-08-01T09:18:50Z</time>
      </trkpt>
      <trkpt lat="46.6477" lon="5.77501">
        <ele>522.13</ele>
        <time>2013-08-01T09:19:00Z</time>
      </trkpt>
      <trkpt lat="46.64774" lon="5.77455">
        <ele>523.58</ele>
        <time>2013-08-01T09:19:10Z</time>
      </trkpt>
      <trkpt lat="46.64794" lon="5.77394">
        <ele>526.46</ele>
        <time>2013-08-01T09:19:24Z</time>
      </trkpt>
      <trkpt lat="46.64818" lon="5.77323">
        <ele>528.86</ele>
        <time>2013-08-01T09:19:41Z</time>
      </trkpt>
      <trkpt lat="46.64847" lon="5.77244">
        <ele>532.23</ele>
        <time>2013-08-01T09:20:00Z</time>
      </trkpt>
      <trkpt lat="46.64867" lon="5.77192">
        <ele>533.67</ele>
        <time>2013-08-01T09:20:13Z</time>
      </trkpt>
      <trkpt lat="46.64883" lon="5.77145">
        <ele>535.59</ele>
        <time>2013-08-01T09:20:24Z</time>
      </trkpt>
      <trkpt lat="46.64896" lon="5.77094">
        <ele>537.51</ele>
        <time>2013-08-01T09:20:36Z</time>
      </trkpt>
      <trkpt lat="46.64893" lon="5.77045">
        <ele>539.92</ele>
        <time>2013-08-01T09:20:48Z</time>
      </trkpt>
      <trkpt lat="46.64871" lon="5.77006">
        <ele>541.36</ele>
        <time>2013-08-01T09:21:01Z</time>
      </trkpt>
      <trkpt lat="46.64845" lon="5.76965">
        <ele>543.28</ele>
        <time>2013-08-01T09:21:14Z</time>
      </trkpt>
      <trkpt lat="46.64819" lon="5.76913">
        <ele>544.72</ele>
        <time>2013-08-01T09:21:28Z</time>
      </trkpt>
      <trkpt lat="46.64799" lon="5.76822">
        <ele>547.61</ele>
        <time>2013-08-01T09:21:46Z</time>
      </trkpt>
      <trkpt lat="46.64777" lon="5.76732">
        <ele>548.57</ele>
        <time>2013-08-01T09:22:02Z</time>
      </trkpt>
      <trkpt lat="46.64775" lon="5.76726">
        <ele>548.57</ele>
        <time>2013-08-01T09:22:03Z</time>
      </trkpt>
      <trkpt lat="46.64766" lon="5.767">
        <ele>548.09</ele>
        <time>2013-08-01T09:22:07Z</time>
      </trkpt>
      <trkpt lat="46.64729" lon="5.76564">
        <ele>547.13</ele>
        <time>2013-08-01T09:22:24Z</time>
      </trkpt>
      <trkpt lat="46.64727" lon="5.76426">
        <ele>544.72</ele>
        <time>2013-08-01T09:22:38Z</time>
      </trkpt>
      <trkpt lat="46.64756" lon="5.7627">
        <ele>541.84</ele>
        <time>2013-08-01T09:22:53Z</time>
      </trkpt>
      <trkpt lat="46.6478" lon="5.76105">
        <ele>540.4</ele>
        <time>2013-08-01T09:23:10Z</time>
      </trkpt>
      <trkpt lat="46.64749" lon="5.75997">
        <ele>539.44</ele>
        <time>2013-08-01T09:23:22Z</time>
      </trkpt>
      <trkpt lat="46.6472" lon="5.75939">
        <ele>539.92</ele>
        <time>2013-08-01T09:23:30Z</time>
      </trkpt>
      <trkpt lat="46.64684" lon="5.75887">
        <ele>539.44</ele>
        <time>2013-08-01T09:23:39Z</time>
      </trkpt>
      <trkpt lat="46.64677" lon="5.75875">
        <ele>538.96</ele>
        <time>2013-08-01T09:23:41Z</time>
      </trkpt>
      <trkpt lat="46.64606" lon="5.75764">
        <ele>537.51</ele>
        <time>2013-08-01T09:23:58Z</time>
      </trkpt>
      <trkpt lat="46.64569" lon="5.7567">
        <ele>536.55</ele>
        <time>2013-08-01T09:24:09Z</time>
      </trkpt>
      <trkpt lat="46.64535" lon="5.75646">
        <ele>535.59</ele>
        <time>2013-08-01T09:24:15Z</time>
      </trkpt>
      <trkpt lat="46.64501" lon="5.75642">
        <ele>534.63</ele>
        <time>2013-08-01T09:24:20Z</time>
      </trkpt>
      <trkpt lat="46.64469" lon="5.75628">
        <ele>534.15</ele>
        <time>2013-08-01T09:24:25Z</time>
      </trkpt>
      <trkpt lat="46.64386" lon="5.75544">
        <ele>532.71</ele>
        <time>2013-08-01T09:24:41Z</time>
      </trkpt>
      <trkpt lat="46.64305" lon="5.75465">
        <ele>531.27</ele>
        <time>2013-08-01T09:24:56Z</time>
      </trkpt>
      <trkpt lat="46.64208" lon="5.754">
        <ele>530.3</ele>
        <time>2013-08-01T09:25:12Z</time>
      </trkpt>
      <trkpt lat="46.64125" lon="5.75337">
        <ele>527.9</ele>
        <time>2013-08-01T09:25:26Z</time>
      </trkpt>
      <trkpt lat="46.64069" lon="5.75284">
        <ele>526.94</ele>
        <time>2013-08-01T09:25:35Z</time>
      </trkpt>
      <trkpt lat="46.63982" lon="5.75228">
        <ele>525.98</ele>
        <time>2013-08-01T09:25:48Z</time>
      </trkpt>
      <trkpt lat="46.63846" lon="5.75177">
        <ele>524.06</ele>
        <time>2013-08-01T09:26:07Z</time>
      </trkpt>
      <trkpt lat="46.63744" lon="5.75183">
        <ele>523.09</ele>
        <time>2013-08-01T09:26:22Z</time>
      </trkpt>
      <trkpt lat="46.63731" lon="5.75189">
        <ele>523.09</ele>
        <time>2013-08-01T09:26:24Z</time>
      </trkpt>
      <trkpt lat="46.63652" lon="5.75258">
        <ele>522.13</ele>
        <time>2013-08-01T09:26:38Z</time>
      </trkpt>
      <trkpt lat="46.63617" lon="5.7529">
        <ele>521.17</ele>
        <time>2013-08-01T09:26:44Z</time>
      </trkpt>
      <trkpt lat="46.63561" lon="5.75288">
        <ele>519.73</ele>
        <time>2013-08-01T09:26:53Z</time>
      </trkpt>
      <trkpt lat="46.63548" lon="5.75275">
        <ele>519.73</ele>
        <time>2013-08-01T09:26:55Z</time>
      </trkpt>
      <trkpt lat="46.63473" lon="5.75188">
        <ele>518.29</ele>
        <time>2013-08-01T09:27:08Z</time>
      </trkpt>
      <trkpt lat="46.6345" lon="5.75078">
        <ele>519.25</ele>
        <time>2013-08-01T09:27:19Z</time>
      </trkpt>
      <trkpt lat="46.63432" lon="5.7493">
        <ele>520.21</ele>
        <time>2013-08-01T09:27:34Z</time>
      </trkpt>
      <trkpt lat="46.6343" lon="5.7492">
        <ele>520.21</ele>
        <time>2013-08-01T09:27:35Z</time>
      </trkpt>
      <trkpt lat="46.63388" lon="5.74846">
        <ele>521.17</ele>
        <time>2013-08-01T09:27:45Z</time>
      </trkpt>
      <trkpt lat="46.63364" lon="5.74838">
        <ele>521.65</ele>
        <time>2013-08-01T09:27:49Z</time>
      </trkpt>
      <trkpt lat="46.63277" lon="5.74844">
        <ele>524.06</ele>
        <time>2013-08-01T09:28:05Z</time>
      </trkpt>
      <trkpt lat="46.63196" lon="5.74869">
        <ele>525.98</ele>
        <time>2013-08-01T09:28:23Z</time>
      </trkpt>
      <trkpt lat="46.63131" lon="5.74888">
        <ele>527.9</ele>
        <time>2013-08-01T09:28:38Z</time>
      </trkpt>
      <trkpt lat="46.63067" lon="5.74917">
        <ele>529.82</ele>
        <time>2013-08-01T09:28:53Z</time>
      </trkpt>
      <trkpt lat="46.63046" lon="5.74929">
        <ele>529.82</ele>
        <time>2013-08-01T09:28:58Z</time>
      </trkpt>
      <trkpt lat="46.62961" lon="5.74963">
        <ele>532.23</ele>
        <time>2013-08-01T09:29:17Z</time>
      </trkpt>
      <trkpt lat="46.62891" lon="5.74976">
        <ele>534.63</ele>
        <time>2013-08-01T09:29:34Z</time>
      </trkpt>
      <trkpt lat="46.62838" lon="5.74995">
        <ele>535.59</ele>
        <time>2013-08-01T09:29:46Z</time>
      </trkpt>
      <trkpt lat="46.62765" lon="5.75046">
        <ele>535.59</ele>
        <time>2013-08-01T09:30:03Z</time>
      </trkpt>
      <trkpt lat="46.62733" lon="5.75078">
        <ele>535.59</ele>
        <time>2013-08-01T09:30:11Z</time>
      </trkpt>
      <trkpt lat="46.62709" lon="5.75081">
        <ele>536.55</ele>
        <time>2013-08-01T09:30:16Z</time>
      </trkpt>
      <trkpt lat="46.62671" lon="5.75065">
        <ele>534.63</ele>
        <time>2013-08-01T09:30:25Z</time>
      </trkpt>
      <trkpt lat="46.6266" lon="5.75078">
        <ele>535.11</ele>
        <time>2013-08-01T09:30:31Z</time>
      </trkpt>
      <trkpt lat="46.62656" lon="5.75063">
        <ele>533.67</ele>
        <time>2013-08-01T09:30:33Z</time>
      </trkpt>
      <trkpt lat="46.6263" lon="5.75011">
        <ele>529.34</ele>
        <time>2013-08-01T09:30:38Z</time>
      </trkpt>
      <trkpt lat="46.62594" lon="5.74901">
        <ele>529.34</ele>
        <time>2013-08-01T09:30:48Z</time>
      </trkpt>
      <trkpt lat="46.62558" lon="5.74879">
        <ele>531.75</ele>
        <time>2013-08-01T09:30:55Z</time>
      </trkpt>
      <trkpt lat="46.62498" lon="5.74884">
        <ele>535.11</ele>
        <time>2013-08-01T09:31:09Z</time>
      </trkpt>
      <trkpt lat="46.62431" lon="5.74843">
        <ele>534.63</ele>
        <time>2013-08-01T09:31:24Z</time>
      </trkpt>
      <trkpt lat="46.62398" lon="5.74822">
        <ele>535.11</ele>
        <time>2013-08-01T09:31:31Z</time>
      </trkpt>
      <trkpt lat="46.62328" lon="5.7482">
        <ele>535.11</ele>
        <time>2013-08-01T09:31:45Z</time>
      </trkpt>
      <trkpt lat="46.62317" lon="5.74822">
        <ele>534.63</ele>
        <time>2013-08-01T09:31:47Z</time>
      </trkpt>
      <trkpt lat="46.62307" lon="5.74821">
        <ele>535.11</ele>
        <time>2013-08-01T09:31:49Z</time>
      </trkpt>
      <trkpt lat="46.62292" lon="5.74815">
        <ele>535.11</ele>
        <time>2013-08-01T09:31:52Z</time>
      </trkpt>
      <trkpt lat="46.62278" lon="5.74805">
        <ele>535.11</ele>
        <time>2013-08-01T09:31:55Z</time>
      </trkpt>
      <trkpt lat="46.62269" lon="5.74779">
        <ele>535.59</ele>
        <time>2013-08-01T09:31:59Z</time>
      </trkpt>
      <trkpt lat="46.62272" lon="5.74684">
        <ele>533.67</ele>
        <time>2013-08-01T09:32:11Z</time>
      </trkpt>
      <trkpt lat="46.62254" lon="5.74667">
        <ele>534.15</ele>
        <time>2013-08-01T09:32:18Z</time>
      </trkpt>
      <trkpt lat="46.62253" lon="5.74665">
        <ele>534.15</ele>
        <time>2013-08-01T09:32:29Z</time>
      </trkpt>
      <trkpt lat="46.62255" lon="5.74672">
        <ele>533.67</ele>
        <time>2013-08-01T09:32:42Z</time>
      </trkpt>
      <trkpt lat="46.62254" lon="5.74668">
        <ele>533.67</ele>
        <time>2013-08-01T09:32:54Z</time>
      </trkpt>
    </trkseg>
  </trk>
</gpx>